Observation data for Odell on 07/11/2018      Previous  Date       Current Mesonet Observations  Soil Data  Daily Summary Page  Observations in Plain Language
KOD1 110501Z 15007KT 25/21 A3007 RMK A01 T02530206  RH  075%=      5-min Rain = 0
KOD1 110502Z 15009KT 25/21 A3007 RMK A01 T02530207  RH  075%=      5-min Rain = 0
KOD1 110503Z 14008KT 25/21 A3007 RMK A01 T02540207  RH  075%=      5-min Rain = 0
KOD1 110504Z 15008KT 25/21 A3007 RMK A01 T02540207  RH  075%=      5-min Rain = 0
KOD1 110505Z 15008KT 25/21 A3007 RMK A01 T02540207  RH  075%=      5-min Rain = 0
KOD1 110506Z 15008KT 25/21 A3007 RMK A01 T02540207  RH  075%=      5-min Rain = 0
KOD1 110507Z 15008KT 25/21 A3007 RMK A01 T02540207  RH  075%=      5-min Rain = 0
KOD1 110508Z 15008KT 25/21 A3007 RMK A01 T02540207  RH  075%=      5-min Rain = 0
KOD1 110509Z 14008KT 25/21 A3007 RMK A01 T02540207  RH  075%=      5-min Rain = 0
KOD1 110510Z 14008KT 25/21 A3007 RMK A01 T02540208  RH  076%=      5-min Rain = 0
KOD1 110511Z 14008KT 25/21 A3007 RMK A01 T02540208  RH  076%=      5-min Rain = 0
KOD1 110512Z 14008KT 25/21 A3007 RMK A01 T02540208  RH  076%=      5-min Rain = 0
KOD1 110513Z 14008KT 25/21 A3007 RMK A01 T02540208  RH  076%=      5-min Rain = 0
KOD1 110514Z 14007KT 25/21 A3007 RMK A01 T02540208  RH  076%=      5-min Rain = 0
KOD1 110515Z 14007KT 25/21 A3007 RMK A01 T02540208  RH  075%=      5-min Rain = 0
KOD1 110516Z 14007KT 25/21 A3007 RMK A01 T02540208  RH  075%=      5-min Rain = 0
KOD1 110517Z 14008KT 25/21 A3007 RMK A01 T02540208  RH  075%=      5-min Rain = 0
KOD1 110518Z 14007KT 26/21 A3007 RMK A01 T02550208  RH  075%=      5-min Rain = 0
KOD1 110519Z 14008KT 26/21 A3007 RMK A01 T02550208  RH  075%=      5-min Rain = 0
KOD1 110520Z 14007KT 26/21 A3007 RMK A01 T02550208  RH  075%=      5-min Rain = 0
KOD1 110521Z 15007KT 26/21 A3007 RMK A01 T02550208  RH  075%=      5-min Rain = 0
KOD1 110522Z 14007KT 26/21 A3007 RMK A01 T02550208  RH  075%=      5-min Rain = 0
KOD1 110523Z 15008KT 26/21 A3007 RMK A01 T02550208  RH  075%=      5-min Rain = 0
KOD1 110524Z 15008KT 26/21 A3007 RMK A01 T02550208  RH  075%=      5-min Rain = 0
KOD1 110525Z 15007KT 26/21 A3007 RMK A01 T02560208  RH  075%=      5-min Rain = 0
KOD1 110526Z 16008KT 26/21 A3007 RMK A01 T02560208  RH  075%=      5-min Rain = 0
KOD1 110527Z 15007KT 26/21 A3007 RMK A01 T02550208  RH  075%=      5-min Rain = 0
KOD1 110528Z 15009KT 26/21 A3007 RMK A01 T02550208  RH  075%=      5-min Rain = 0
KOD1 110529Z 15007KT 26/21 A3007 RMK A01 T02550208  RH  075%=      5-min Rain = 0
KOD1 110530Z 16007KT 26/21 A3007 RMK A01 T02550208  RH  075%=      5-min Rain = 0
KOD1 110531Z 16008KT 25/21 A3007 RMK A01 T02540208  RH  075%=      5-min Rain = 0
KOD1 110532Z 16007KT 25/21 A3007 RMK A01 T02540208  RH  075%=      5-min Rain = 0
KOD1 110533Z 16008KT 25/21 A3007 RMK A01 T02540208  RH  076%=      5-min Rain = 0
KOD1 110534Z 16007KT 25/21 A3007 RMK A01 T02540208  RH  076%=      5-min Rain = 0
KOD1 110535Z 16007KT 25/21 A3007 RMK A01 T02540208  RH  076%=      5-min Rain = 0
KOD1 110536Z 17008KT 25/21 A3007 RMK A01 T02540208  RH  076%=      5-min Rain = 0
KOD1 110537Z 17007KT 25/21 A3007 RMK A01 T02540208  RH  076%=      5-min Rain = 0
KOD1 110538Z 17007KT 25/21 A3007 RMK A01 T02540208  RH  076%=      5-min Rain = 0
KOD1 110539Z 17007KT 25/21 A3007 RMK A01 T02540209  RH  076%=      5-min Rain = 0
KOD1 110540Z 17008KT 25/21 A3007 RMK A01 T02540209  RH  076%=      5-min Rain = 0
KOD1 110541Z 17008KT 25/21 A3007 RMK A01 T02540209  RH  076%=      5-min Rain = 0
KOD1 110542Z 17008KT 25/21 A3007 RMK A01 T02540209  RH  076%=      5-min Rain = 0
KOD1 110543Z 17010KT 25/21 A3007 RMK A01 T02540209  RH  076%=      5-min Rain = 0
KOD1 110544Z 17010KT 25/21 A3007 RMK A01 T02540209  RH  076%=      5-min Rain = 0
KOD1 110545Z 17009KT 25/21 A3007 RMK A01 T02540209  RH  076%=      5-min Rain = 0
KOD1 110546Z 17010KT 25/21 A3007 RMK A01 T02540210  RH  077%=      5-min Rain = 0
KOD1 110547Z 17010KT 26/21 A3007 RMK A01 T02550211  RH  077%=      5-min Rain = 0
KOD1 110548Z 16009KT 26/21 A3007 RMK A01 T02550211  RH  077%=      5-min Rain = 0
KOD1 110549Z 16009KT 26/21 A3007 RMK A01 T02550211  RH  077%=      5-min Rain = 0
KOD1 110550Z 16008KT 26/21 A3007 RMK A01 T02550211  RH  077%=      5-min Rain = 0
KOD1 110551Z 16009KT 26/21 A3007 RMK A01 T02550211  RH  077%=      5-min Rain = 0
KOD1 110552Z 16010KT 26/21 A3007 RMK A01 T02550211  RH  077%=      5-min Rain = 0
KOD1 110553Z 16008KT 26/21 A3007 RMK A01 T02550211  RH  077%=      5-min Rain = 0
KOD1 110554Z 16009KT 25/21 A3007 RMK A01 T02540211  RH  077%=      5-min Rain = 0
KOD1 110555Z 16010KT 26/21 A3007 RMK A01 T02550211  RH  077%=      5-min Rain = 0
KOD1 110556Z 17009KT 26/21 A3007 RMK A01 T02550211  RH  077%=      5-min Rain = 0
KOD1 110557Z 16009KT 26/21 A3007 RMK A01 T02550211  RH  077%=      5-min Rain = 0
KOD1 110558Z 17008KT 25/21 A3007 RMK A01 T02540211  RH  077%=      5-min Rain = 0
KOD1 110559Z 17007KT 25/21 A3007 RMK A01 T02540211  RH  077%=      5-min Rain = 0
KOD1 110600Z 17007KT 25/21 A3007 RMK A01 T02540211  RH  077%=      5-min Rain = 0
KOD1 110601Z 17007KT 25/21 A3007 RMK A01 T02530211  RH  078%=      5-min Rain = 0
KOD1 110602Z 17006KT 25/21 A3006 RMK A01 T02530211  RH  078%=      5-min Rain = 0
KOD1 110603Z 17007KT 25/21 A3006 RMK A01 T02530210  RH  077%=      5-min Rain = 0
KOD1 110604Z 17007KT 25/21 A3006 RMK A01 T02530210  RH  077%=      5-min Rain = 0
KOD1 110605Z 17007KT 25/21 A3006 RMK A01 T02530209  RH  077%=      5-min Rain = 0
KOD1 110606Z 17008KT 25/21 A3006 RMK A01 T02530209  RH  076%=      5-min Rain = 0
KOD1 110607Z 17008KT 25/21 A3006 RMK A01 T02540208  RH  076%=      5-min Rain = 0
KOD1 110608Z 18009KT 25/21 A3006 RMK A01 T02540208  RH  076%=      5-min Rain = 0
KOD1 110609Z 18008KT 25/21 A3006 RMK A01 T02540206  RH  075%=      5-min Rain = 0
KOD1 110610Z 18007KT 26/21 A3006 RMK A01 T02550207  RH  075%=      5-min Rain = 0
KOD1 110611Z 18008KT 26/21 A3006 RMK A01 T02550206  RH  074%=      5-min Rain = 0
KOD1 110612Z 18008KT 26/21 A3006 RMK A01 T02550206  RH  074%=      5-min Rain = 0
KOD1 110613Z 18008KT 26/21 A3006 RMK A01 T02560205  RH  074%=      5-min Rain = 0
KOD1 110614Z 18009KT 26/21 A3006 RMK A01 T02560205  RH  073%=      5-min Rain = 0
KOD1 110615Z 18009KT 26/21 A3006 RMK A01 T02560205  RH  073%=      5-min Rain = 0
KOD1 110616Z 18008KT 26/21 A3006 RMK A01 T02570205  RH  073%=      5-min Rain = 0
KOD1 110617Z 17008KT 26/21 A3006 RMK A01 T02570205  RH  073%=      5-min Rain = 0
KOD1 110618Z 18010KT 26/21 A3006 RMK A01 T02570205  RH  073%=      5-min Rain = 0
KOD1 110619Z 17008KT 26/21 A3006 RMK A01 T02570205  RH  073%=      5-min Rain = 0
KOD1 110620Z 17008KT 26/21 A3006 RMK A01 T02570205  RH  073%=      5-min Rain = 0
KOD1 110621Z 17006KT 26/21 A3006 RMK A01 T02570205  RH  073%=      5-min Rain = 0
KOD1 110622Z 17007KT 26/21 A3006 RMK A01 T02570205  RH  073%=      5-min Rain = 0
KOD1 110623Z 17008KT 26/21 A3006 RMK A01 T02570205  RH  073%=      5-min Rain = 0
KOD1 110624Z 17008KT 26/21 A3006 RMK A01 T02570205  RH  073%=      5-min Rain = 0
KOD1 110625Z 17009KT 26/20 A3006 RMK A01 T02570204  RH  073%=      5-min Rain = 0
KOD1 110626Z 17007KT 26/20 A3006 RMK A01 T02570204  RH  072%=      5-min Rain = 0
KOD1 110627Z 18009KT 26/20 A3006 RMK A01 T02570204  RH  072%=      5-min Rain = 0
KOD1 110628Z 17008KT 26/20 A3006 RMK A01 T02580204  RH  072%=      5-min Rain = 0
KOD1 110629Z 18007KT 26/20 A3006 RMK A01 T02580204  RH  072%=      5-min Rain = 0
KOD1 110630Z 17006KT 26/20 A3006 RMK A01 T02580204  RH  072%=      5-min Rain = 0
KOD1 110631Z 17008KT 26/21 A3006 RMK A01 T02570205  RH  073%=      5-min Rain = 0
KOD1 110632Z 17008KT 26/21 A3006 RMK A01 T02570205  RH  073%=      5-min Rain = 0
KOD1 110633Z 16008KT 26/21 A3006 RMK A01 T02560205  RH  073%=      5-min Rain = 0
KOD1 110634Z 17008KT 26/20 A3006 RMK A01 T02560204  RH  073%=      5-min Rain = 0
KOD1 110635Z 17008KT 26/20 A3006 RMK A01 T02560204  RH  073%=      5-min Rain = 0
KOD1 110636Z 16007KT 26/20 A3006 RMK A01 T02560204  RH  073%=      5-min Rain = 0
KOD1 110637Z 17007KT 26/20 A3006 RMK A01 T02560204  RH  073%=      5-min Rain = 0
KOD1 110638Z 17007KT 26/21 A3006 RMK A01 T02550205  RH  073%=      5-min Rain = 0
KOD1 110639Z 17008KT 26/21 A3006 RMK A01 T02550205  RH  074%=      5-min Rain = 0
KOD1 110640Z 17007KT 26/21 A3006 RMK A01 T02550205  RH  074%=      5-min Rain = 0
KOD1 110641Z 16007KT 26/21 A3006 RMK A01 T02550205  RH  074%=      5-min Rain = 0
KOD1 110642Z 16008KT 25/21 A3005 RMK A01 T02540205  RH  074%=      5-min Rain = 0
KOD1 110643Z 16008KT 25/21 A3005 RMK A01 T02540205  RH  074%=      5-min Rain = 0
KOD1 110644Z 16007KT 25/21 A3005 RMK A01 T02540205  RH  074%=      5-min Rain = 0
KOD1 110645Z 16008KT 25/21 A3005 RMK A01 T02540206  RH  075%=      5-min Rain = 0
KOD1 110646Z 16007KT 25/21 A3006 RMK A01 T02540206  RH  075%=      5-min Rain = 0
KOD1 110647Z 17008KT 25/21 A3006 RMK A01 T02540206  RH  075%=      5-min Rain = 0
KOD1 110648Z 17008KT 25/21 A3006 RMK A01 T02540206  RH  075%=      5-min Rain = 0
KOD1 110649Z 17008KT 25/21 A3005 RMK A01 T02540207  RH  075%=      5-min Rain = 0
KOD1 110650Z 17007KT 25/21 A3005 RMK A01 T02540207  RH  075%=      5-min Rain = 0
KOD1 110651Z 17007KT 25/21 A3005 RMK A01 T02540207  RH  075%=      5-min Rain = 0
KOD1 110652Z 18007KT 25/21 A3005 RMK A01 T02530207  RH  076%=      5-min Rain = 0
KOD1 110653Z 17008KT 25/21 A3005 RMK A01 T02530207  RH  076%=      5-min Rain = 0
KOD1 110654Z 17008KT 25/21 A3005 RMK A01 T02520207  RH  076%=      5-min Rain = 0
KOD1 110655Z 17008KT 25/21 A3005 RMK A01 T02520207  RH  076%=      5-min Rain = 0
KOD1 110656Z 17007KT 25/21 A3005 RMK A01 T02520207  RH  076%=      5-min Rain = 0
KOD1 110657Z 17007KT 25/21 A3005 RMK A01 T02520207  RH  076%=      5-min Rain = 0
KOD1 110658Z 18007KT 25/21 A3005 RMK A01 T02510207  RH  076%=      5-min Rain = 0
KOD1 110659Z 18007KT 25/21 A3005 RMK A01 T02510207  RH  077%=      5-min Rain = 0
KOD1 110700Z 17007KT 25/21 A3005 RMK A01 T02510207  RH  077%=      5-min Rain = 0
KOD1 110701Z 17007KT 25/21 A3005 RMK A01 T02510208  RH  077%=      5-min Rain = 0
KOD1 110702Z 17006KT 25/21 A3005 RMK A01 T02510208  RH  077%=      5-min Rain = 0
KOD1 110703Z 17007KT 25/21 A3005 RMK A01 T02510208  RH  077%=      5-min Rain = 0
KOD1 110704Z 17007KT 25/21 A3005 RMK A01 T02510208  RH  077%=      5-min Rain = 0
KOD1 110705Z 17007KT 25/21 A3005 RMK A01 T02510208  RH  077%=      5-min Rain = 0
KOD1 110706Z 17007KT 25/21 A3005 RMK A01 T02510208  RH  077%=      5-min Rain = 0
KOD1 110707Z 17006KT 25/21 A3005 RMK A01 T02510208  RH  077%=      5-min Rain = 0
KOD1 110708Z 17007KT 25/21 A3005 RMK A01 T02510208  RH  077%=      5-min Rain = 0
KOD1 110709Z 18008KT 25/21 A3005 RMK A01 T02510208  RH  077%=      5-min Rain = 0
KOD1 110710Z 17006KT 25/21 A3005 RMK A01 T02510208  RH  077%=      5-min Rain = 0
KOD1 110711Z 17006KT 25/21 A3005 RMK A01 T02500208  RH  077%=      5-min Rain = 0
KOD1 110712Z 17007KT 25/21 A3005 RMK A01 T02500208  RH  077%=      5-min Rain = 0
KOD1 110713Z 17007KT 25/21 A3005 RMK A01 T02500208  RH  077%=      5-min Rain = 0
KOD1 110714Z 17007KT 25/21 A3005 RMK A01 T02500208  RH  077%=      5-min Rain = 0
KOD1 110715Z 16006KT 25/21 A3005 RMK A01 T02490208  RH  078%=      5-min Rain = 0
KOD1 110716Z 16006KT 25/21 A3005 RMK A01 T02490208  RH  078%=      5-min Rain = 0
KOD1 110717Z 16006KT 25/21 A3005 RMK A01 T02490208  RH  078%=      5-min Rain = 0
KOD1 110718Z 17006KT 25/21 A3005 RMK A01 T02490208  RH  078%=      5-min Rain = 0
KOD1 110719Z 17007KT 25/21 A3005 RMK A01 T02480208  RH  078%=      5-min Rain = 0
KOD1 110720Z 17007KT 25/21 A3005 RMK A01 T02480208  RH  078%=      5-min Rain = 0
KOD1 110721Z 17007KT 25/21 A3005 RMK A01 T02480207  RH  078%=      5-min Rain = 0
KOD1 110722Z 17006KT 25/21 A3005 RMK A01 T02490207  RH  078%=      5-min Rain = 0
KOD1 110723Z 18008KT 25/21 A3005 RMK A01 T02490207  RH  078%=      5-min Rain = 0
KOD1 110724Z 17008KT 25/21 A3005 RMK A01 T02490207  RH  077%=      5-min Rain = 0
KOD1 110725Z 17008KT 25/21 A3005 RMK A01 T02490207  RH  077%=      5-min Rain = 0
KOD1 110726Z 17009KT 25/21 A3005 RMK A01 T02500207  RH  077%=      5-min Rain = 0
KOD1 110727Z 18008KT 25/21 A3005 RMK A01 T02500206  RH  076%=      5-min Rain = 0
KOD1 110728Z 17007KT 25/21 A3005 RMK A01 T02510206  RH  076%=      5-min Rain = 0
KOD1 110729Z 18008KT 25/21 A3005 RMK A01 T02500206  RH  076%=      5-min Rain = 0
KOD1 110730Z 17008KT 25/21 A3005 RMK A01 T02510206  RH  076%=      5-min Rain = 0
KOD1 110731Z 17009KT 25/21 A3005 RMK A01 T02510206  RH  076%=      5-min Rain = 0
KOD1 110732Z 17008KT 25/21 A3005 RMK A01 T02510206  RH  076%=      5-min Rain = 0
KOD1 110733Z 17008KT 25/21 A3005 RMK A01 T02510206  RH  076%=      5-min Rain = 0
KOD1 110734Z 17007KT 25/21 A3005 RMK A01 T02510206  RH  076%=      5-min Rain = 0
KOD1 110735Z 16007KT 25/21 A3005 RMK A01 T02510206  RH  076%=      5-min Rain = 0
KOD1 110736Z 16008KT 25/21 A3006 RMK A01 T02520206  RH  076%=      5-min Rain = 0
KOD1 110737Z 15007KT 25/21 A3006 RMK A01 T02520206  RH  076%=      5-min Rain = 0
KOD1 110738Z 15008KT 25/21 A3006 RMK A01 T02520206  RH  076%=      5-min Rain = 0
KOD1 110739Z 15008KT 25/21 A3006 RMK A01 T02520206  RH  075%=      5-min Rain = 0
KOD1 110740Z 13008KT 25/21 A3006 RMK A01 T02520206  RH  076%=      5-min Rain = 0
KOD1 110741Z 14008KT 25/21 A3006 RMK A01 T02520206  RH  076%=      5-min Rain = 0
KOD1 110742Z 12007KT 25/21 A3006 RMK A01 T02520207  RH  076%=      5-min Rain = 0
KOD1 110743Z 12006KT 25/21 A3006 RMK A01 T02510207  RH  076%=      5-min Rain = 0
KOD1 110744Z 13006KT 25/21 A3006 RMK A01 T02500207  RH  077%=      5-min Rain = 0
KOD1 110745Z 13007KT 25/21 A3006 RMK A01 T02500208  RH  078%=      5-min Rain = 0
KOD1 110746Z 13006KT 25/21 A3006 RMK A01 T02490209  RH  078%=      5-min Rain = 0
KOD1 110747Z 13006KT 25/21 A3006 RMK A01 T02480209  RH  079%=      5-min Rain = 0
KOD1 110748Z 14006KT 25/21 A3006 RMK A01 T02480209  RH  079%=      5-min Rain = 0
KOD1 110749Z 13006KT 25/21 A3006 RMK A01 T02480209  RH  079%=      5-min Rain = 0
KOD1 110750Z 13006KT 25/21 A3006 RMK A01 T02480209  RH  079%=      5-min Rain = 0
KOD1 110751Z 14005KT 25/21 A3006 RMK A01 T02470209  RH  079%=      5-min Rain = 0
KOD1 110752Z 13006KT 25/21 A3006 RMK A01 T02470209  RH  079%=      5-min Rain = 0
KOD1 110753Z 13006KT 25/21 A3006 RMK A01 T02470209  RH  079%=      5-min Rain = 0
KOD1 110754Z 12006KT 25/21 A3006 RMK A01 T02470209  RH  080%=      5-min Rain = 0
KOD1 110755Z 11005KT 25/21 A3006 RMK A01 T02460209  RH  080%=      5-min Rain = 0
KOD1 110756Z 11005KT 25/21 A3006 RMK A01 T02460209  RH  080%=      5-min Rain = 0
KOD1 110757Z 11005KT 25/21 A3006 RMK A01 T02450209  RH  080%=      5-min Rain = 0
KOD1 110758Z 12006KT 24/21 A3006 RMK A01 T02440209  RH  081%=      5-min Rain = 0
KOD1 110759Z 11006KT 24/21 A3006 RMK A01 T02430209  RH  081%=      5-min Rain = 0
KOD1 110800Z 11005KT 24/21 A3006 RMK A01 T02430209  RH  082%=      5-min Rain = 0
KOD1 110801Z 12005KT 24/21 A3006 RMK A01 T02420209  RH  082%=      5-min Rain = 0
KOD1 110802Z 12005KT 24/21 A3006 RMK A01 T02420210  RH  082%=      5-min Rain = 0
KOD1 110803Z 12005KT 24/21 A3006 RMK A01 T02420210  RH  082%=      5-min Rain = 0
KOD1 110804Z 12004KT 24/21 A3005 RMK A01 T02410210  RH  082%=      5-min Rain = 0
KOD1 110805Z 13004KT 24/21 A3005 RMK A01 T02410209  RH  082%=      5-min Rain = 0
KOD1 110806Z 11004KT 24/21 A3005 RMK A01 T02410209  RH  083%=      5-min Rain = 0
KOD1 110807Z 11005KT 24/21 A3005 RMK A01 T02410210  RH  083%=      5-min Rain = 0
KOD1 110808Z 10004KT 24/21 A3005 RMK A01 T02410210  RH  083%=      5-min Rain = 0
KOD1 110809Z 11004KT 24/21 A3005 RMK A01 T02400210  RH  083%=      5-min Rain = 0
KOD1 110810Z 10004KT 24/21 A3005 RMK A01 T02400209  RH  083%=      5-min Rain = 0
KOD1 110811Z 10004KT 24/21 A3005 RMK A01 T02400209  RH  083%=      5-min Rain = 0
KOD1 110812Z 10003KT 24/21 A3005 RMK A01 T02390209  RH  083%=      5-min Rain = 0
KOD1 110813Z 10004KT 24/21 A3005 RMK A01 T02390209  RH  084%=      5-min Rain = 0
KOD1 110814Z 10003KT 24/21 A3005 RMK A01 T02380209  RH  084%=      5-min Rain = 0
KOD1 110815Z 10004KT 24/21 A3005 RMK A01 T02380210  RH  084%=      5-min Rain = 0
KOD1 110816Z 10003KT 24/21 A3005 RMK A01 T02380210  RH  084%=      5-min Rain = 0
KOD1 110817Z 10003KT 24/21 A3005 RMK A01 T02370209  RH  084%=      5-min Rain = 0
KOD1 110818Z 09003KT 24/21 A3005 RMK A01 T02370209  RH  084%=      5-min Rain = 0
KOD1 110819Z 09003KT 24/21 A3005 RMK A01 T02360209  RH  084%=      5-min Rain = 0
KOD1 110820Z 09003KT 24/21 A3005 RMK A01 T02360209  RH  085%=      5-min Rain = 0
KOD1 110821Z 09004KT 24/21 A3005 RMK A01 T02350209  RH  085%=      5-min Rain = 0
KOD1 110822Z 09004KT 24/21 A3005 RMK A01 T02350209  RH  085%=      5-min Rain = 0
KOD1 110823Z 09004KT 24/21 A3005 RMK A01 T02350210  RH  086%=      5-min Rain = 0
KOD1 110824Z 09005KT 24/21 A3005 RMK A01 T02350210  RH  086%=      5-min Rain = 0
KOD1 110825Z 09005KT 24/21 A3005 RMK A01 T02350210  RH  086%=      5-min Rain = 0
KOD1 110826Z 09005KT 24/21 A3005 RMK A01 T02350210  RH  086%=      5-min Rain = 0
KOD1 110827Z 09004KT 24/21 A3005 RMK A01 T02350211  RH  086%=      5-min Rain = 0
KOD1 110828Z 09004KT 24/21 A3005 RMK A01 T02350211  RH  086%=      5-min Rain = 0
KOD1 110829Z 09004KT 24/21 A3005 RMK A01 T02350210  RH  086%=      5-min Rain = 0
KOD1 110830Z 09004KT 24/21 A3005 RMK A01 T02350210  RH  086%=      5-min Rain = 0
KOD1 110831Z 09004KT 23/21 A3005 RMK A01 T02340210  RH  086%=      5-min Rain = 0
KOD1 110832Z 09004KT 23/21 A3005 RMK A01 T02340210  RH  086%=      5-min Rain = 0
KOD1 110833Z 10004KT 23/21 A3005 RMK A01 T02340210  RH  086%=      5-min Rain = 0
KOD1 110834Z 10005KT 23/21 A3005 RMK A01 T02340210  RH  087%=      5-min Rain = 0
KOD1 110835Z 09004KT 23/21 A3005 RMK A01 T02340211  RH  087%=      5-min Rain = 0
KOD1 110836Z 10005KT 23/21 A3005 RMK A01 T02340211  RH  087%=      5-min Rain = 0
KOD1 110837Z 09004KT 23/21 A3005 RMK A01 T02340211  RH  087%=      5-min Rain = 0
KOD1 110838Z 10004KT 23/21 A3005 RMK A01 T02340210  RH  087%=      5-min Rain = 0
KOD1 110839Z 10004KT 23/21 A3005 RMK A01 T02330211  RH  087%=      5-min Rain = 0
KOD1 110840Z 10003KT 23/21 A3005 RMK A01 T02330211  RH  087%=      5-min Rain = 0
KOD1 110841Z 10004KT 23/21 A3005 RMK A01 T02330210  RH  087%=      5-min Rain = 0
KOD1 110842Z 11003KT 23/21 A3005 RMK A01 T02330210  RH  087%=      5-min Rain = 0
KOD1 110843Z 11003KT 23/21 A3005 RMK A01 T02330210  RH  087%=      5-min Rain = 0
KOD1 110844Z 11003KT 23/21 A3005 RMK A01 T02330210  RH  087%=      5-min Rain = 0
KOD1 110845Z 12003KT 23/21 A3005 RMK A01 T02330210  RH  087%=      5-min Rain = 0
KOD1 110846Z 12003KT 23/21 A3005 RMK A01 T02330211  RH  087%=      5-min Rain = 0
KOD1 110847Z 13003KT 23/21 A3005 RMK A01 T02330211  RH  087%=      5-min Rain = 0
KOD1 110848Z 12003KT 23/21 A3005 RMK A01 T02330211  RH  087%=      5-min Rain = 0
KOD1 110849Z 13003KT 23/21 A3005 RMK A01 T02330211  RH  087%=      5-min Rain = 0
KOD1 110850Z 13003KT 23/21 A3005 RMK A01 T02330211  RH  087%=      5-min Rain = 0
KOD1 110851Z 13004KT 23/21 A3005 RMK A01 T02330211  RH  087%=      5-min Rain = 0
KOD1 110852Z 13003KT 23/21 A3005 RMK A01 T02330211  RH  087%=      5-min Rain = 0
KOD1 110853Z 13004KT 23/21 A3005 RMK A01 T02340211  RH  087%=      5-min Rain = 0
KOD1 110854Z 14004KT 23/21 A3005 RMK A01 T02340211  RH  087%=      5-min Rain = 0
KOD1 110855Z 13004KT 23/21 A3005 RMK A01 T02340211  RH  087%=      5-min Rain = 0
KOD1 110856Z 14004KT 23/21 A3005 RMK A01 T02340211  RH  087%=      5-min Rain = 0
KOD1 110857Z 14004KT 23/21 A3005 RMK A01 T02340211  RH  087%=      5-min Rain = 0
KOD1 110858Z 14004KT 23/21 A3005 RMK A01 T02340211  RH  087%=      5-min Rain = 0
KOD1 110859Z 14004KT 23/21 A3005 RMK A01 T02340211  RH  087%=      5-min Rain = 0
KOD1 110900Z 14004KT 23/21 A3004 RMK A01 T02340211  RH  087%=      5-min Rain = 0
KOD1 110901Z 14004KT 23/21 A3004 RMK A01 T02340211  RH  087%=      5-min Rain = 0
KOD1 110902Z 13004KT 23/21 A3004 RMK A01 T02340211  RH  087%=      5-min Rain = 0
KOD1 110903Z 13004KT 23/21 A3004 RMK A01 T02340211  RH  087%=      5-min Rain = 0
KOD1 110904Z 13004KT 23/21 A3004 RMK A01 T02340211  RH  087%=      5-min Rain = 0
KOD1 110905Z 13004KT 23/21 A3004 RMK A01 T02340210  RH  087%=      5-min Rain = 0
KOD1 110906Z 13005KT 23/21 A3004 RMK A01 T02340210  RH  087%=      5-min Rain = 0
KOD1 110907Z 14005KT 23/21 A3004 RMK A01 T02340211  RH  087%=      5-min Rain = 0
KOD1 110908Z 14005KT 23/21 A3004 RMK A01 T02340211  RH  087%=      5-min Rain = 0
KOD1 110909Z 14004KT 23/21 A3004 RMK A01 T02340211  RH  087%=      5-min Rain = 0
KOD1 110910Z 14004KT 23/21 A3004 RMK A01 T02340210  RH  087%=      5-min Rain = 0
KOD1 110911Z 14004KT 23/21 A3004 RMK A01 T02340210  RH  087%=      5-min Rain = 0
KOD1 110912Z 15004KT 23/21 A3004 RMK A01 T02340210  RH  087%=      5-min Rain = 0
KOD1 110913Z 14004KT 23/21 A3004 RMK A01 T02340210  RH  087%=      5-min Rain = 0
KOD1 110914Z 14005KT 23/21 A3004 RMK A01 T02340210  RH  087%=      5-min Rain = 0
KOD1 110915Z 14005KT 23/21 A3004 RMK A01 T02340210  RH  087%=      5-min Rain = 0
KOD1 110916Z 14005KT 23/21 A3004 RMK A01 T02340210  RH  087%=      5-min Rain = 0
KOD1 110917Z 14005KT 23/21 A3004 RMK A01 T02330210  RH  087%=      5-min Rain = 0
KOD1 110918Z 15005KT 23/21 A3004 RMK A01 T02330210  RH  087%=      5-min Rain = 0
KOD1 110919Z 15004KT 23/21 A3004 RMK A01 T02330209  RH  087%=      5-min Rain = 0
KOD1 110920Z 15004KT 23/21 A3004 RMK A01 T02330209  RH  087%=      5-min Rain = 0
KOD1 110921Z 15003KT 23/21 A3004 RMK A01 T02320209  RH  087%=      5-min Rain = 0
KOD1 110922Z 14003KT 23/21 A3004 RMK A01 T02320209  RH  087%=      5-min Rain = 0
KOD1 110923Z 15003KT 23/21 A3004 RMK A01 T02320209  RH  087%=      5-min Rain = 0
KOD1 110924Z 14004KT 23/21 A3004 RMK A01 T02320209  RH  087%=      5-min Rain = 0
KOD1 110925Z 14004KT 23/21 A3004 RMK A01 T02320209  RH  087%=      5-min Rain = 0
KOD1 110926Z 14004KT 23/21 A3004 RMK A01 T02310209  RH  087%=      5-min Rain = 0
KOD1 110927Z 14004KT 23/21 A3004 RMK A01 T02310209  RH  087%=      5-min Rain = 0
KOD1 110928Z 13003KT 23/21 A3004 RMK A01 T02310209  RH  087%=      5-min Rain = 0
KOD1 110929Z 12003KT 23/21 A3004 RMK A01 T02310209  RH  087%=      5-min Rain = 0
KOD1 110930Z 12002KT 23/21 A3004 RMK A01 T02310209  RH  087%=      5-min Rain = 0
KOD1 110931Z 12003KT 23/21 A3004 RMK A01 T02310209  RH  087%=      5-min Rain = 0
KOD1 110932Z 12003KT 23/21 A3004 RMK A01 T02310208  RH  087%=      5-min Rain = 0
KOD1 110933Z 12003KT 23/21 A3004 RMK A01 T02310208  RH  087%=      5-min Rain = 0
KOD1 110934Z 12004KT 23/21 A3004 RMK A01 T02310209  RH  087%=      5-min Rain = 0
KOD1 110935Z 11003KT 23/21 A3004 RMK A01 T02310209  RH  087%=      5-min Rain = 0
KOD1 110936Z 11002KT 23/21 A3004 RMK A01 T02310209  RH  087%=      5-min Rain = 0
KOD1 110937Z 11003KT 23/21 A3004 RMK A01 T02310209  RH  087%=      5-min Rain = 0
KOD1 110938Z 11003KT 23/21 A3004 RMK A01 T02310208  RH  087%=      5-min Rain = 0
KOD1 110939Z 11004KT 23/21 A3004 RMK A01 T02310208  RH  087%=      5-min Rain = 0
KOD1 110940Z 10004KT 23/21 A3004 RMK A01 T02300208  RH  087%=      5-min Rain = 0
KOD1 110941Z 10004KT 23/21 A3004 RMK A01 T02300208  RH  087%=      5-min Rain = 0
KOD1 110942Z 09004KT 23/21 A3004 RMK A01 T02300208  RH  087%=      5-min Rain = 0
KOD1 110943Z 09004KT 23/21 A3004 RMK A01 T02290207  RH  087%=      5-min Rain = 0
KOD1 110944Z 09005KT 23/21 A3004 RMK A01 T02290207  RH  088%=      5-min Rain = 0
KOD1 110945Z 10006KT 23/21 A3004 RMK A01 T02280207  RH  088%=      5-min Rain = 0
KOD1 110946Z 09006KT 23/21 A3004 RMK A01 T02280208  RH  088%=      5-min Rain = 0
KOD1 110947Z 09006KT 23/21 A3004 RMK A01 T02280208  RH  088%=      5-min Rain = 0
KOD1 110948Z 08006KT 23/21 A3004 RMK A01 T02280208  RH  088%=      5-min Rain = 0
KOD1 110949Z 09005KT 23/21 A3004 RMK A01 T02270208  RH  089%=      5-min Rain = 0
KOD1 110950Z 08005KT 23/21 A3004 RMK A01 T02270208  RH  089%=      5-min Rain = 0
KOD1 110951Z 09005KT 23/21 A3004 RMK A01 T02270208  RH  089%=      5-min Rain = 0
KOD1 110952Z 08005KT 23/21 A3004 RMK A01 T02270208  RH  089%=      5-min Rain = 0
KOD1 110953Z 08005KT 23/21 A3004 RMK A01 T02270208  RH  089%=      5-min Rain = 0
KOD1 110954Z 08005KT 23/21 A3004 RMK A01 T02260208  RH  090%=      5-min Rain = 0
KOD1 110955Z 08005KT 23/21 A3004 RMK A01 T02260208  RH  090%=      5-min Rain = 0
KOD1 110956Z 08004KT 23/21 A3004 RMK A01 T02260208  RH  090%=      5-min Rain = 0
KOD1 110957Z 08004KT 23/21 A3004 RMK A01 T02260208  RH  090%=      5-min Rain = 0
KOD1 110958Z 08004KT 23/21 A3004 RMK A01 T02260208  RH  090%=      5-min Rain = 0
KOD1 110959Z 08004KT 23/21 A3004 RMK A01 T02260208  RH  090%=      5-min Rain = 0
KOD1 111000Z 08004KT 23/21 A3004 RMK A01 T02250208  RH  090%=      5-min Rain = 0
KOD1 111001Z 08004KT 23/21 A3005 RMK A01 T02250208  RH  090%=      5-min Rain = 0
KOD1 111002Z 08004KT 23/21 A3005 RMK A01 T02250208  RH  090%=      5-min Rain = 0
KOD1 111003Z 08004KT 23/21 A3005 RMK A01 T02250207  RH  090%=      5-min Rain = 0
KOD1 111004Z 08004KT 22/21 A3005 RMK A01 T02240207  RH  090%=      5-min Rain = 0
KOD1 111005Z 09004KT 22/21 A3005 RMK A01 T02240207  RH  090%=      5-min Rain = 0
KOD1 111006Z 08004KT 22/21 A3005 RMK A01 T02240208  RH  090%=      5-min Rain = 0
KOD1 111007Z 09004KT 22/21 A3005 RMK A01 T02240208  RH  090%=      5-min Rain = 0
KOD1 111008Z 09003KT 22/21 A3005 RMK A01 T02240208  RH  090%=      5-min Rain = 0
KOD1 111009Z 10004KT 22/21 A3005 RMK A01 T02240208  RH  091%=      5-min Rain = 0
KOD1 111010Z 10004KT 23/21 A3005 RMK A01 T02250209  RH  091%=      5-min Rain = 0
KOD1 111011Z 10004KT 23/21 A3005 RMK A01 T02250209  RH  091%=      5-min Rain = 0
KOD1 111012Z 10004KT 23/21 A3005 RMK A01 T02250209  RH  091%=      5-min Rain = 0
KOD1 111013Z 10004KT 23/21 A3005 RMK A01 T02250209  RH  091%=      5-min Rain = 0
KOD1 111014Z 10004KT 23/21 A3005 RMK A01 T02250209  RH  091%=      5-min Rain = 0
KOD1 111015Z 10004KT 23/21 A3005 RMK A01 T02250209  RH  091%=      5-min Rain = 0
KOD1 111016Z 10005KT 23/21 A3005 RMK A01 T02250209  RH  091%=      5-min Rain = 0
KOD1 111017Z 10005KT 23/21 A3005 RMK A01 T02250209  RH  091%=      5-min Rain = 0
KOD1 111018Z 10005KT 23/21 A3005 RMK A01 T02250209  RH  091%=      5-min Rain = 0
KOD1 111019Z 10005KT 23/21 A3005 RMK A01 T02250209  RH  091%=      5-min Rain = 0
KOD1 111020Z 10004KT 23/21 A3005 RMK A01 T02250209  RH  091%=      5-min Rain = 0
KOD1 111021Z 10004KT 23/21 A3005 RMK A01 T02250209  RH  091%=      5-min Rain = 0
KOD1 111022Z 11004KT 23/21 A3005 RMK A01 T02250209  RH  091%=      5-min Rain = 0
KOD1 111023Z 11004KT 23/21 A3005 RMK A01 T02250209  RH  091%=      5-min Rain = 0
KOD1 111024Z 10004KT 23/21 A3005 RMK A01 T02250209  RH  091%=      5-min Rain = 0
KOD1 111025Z 10004KT 23/21 A3005 RMK A01 T02250209  RH  091%=      5-min Rain = 0
KOD1 111026Z 10004KT 23/21 A3005 RMK A01 T02250209  RH  091%=      5-min Rain = 0
KOD1 111027Z 10005KT 23/21 A3005 RMK A01 T02250209  RH  091%=      5-min Rain = 0
KOD1 111028Z 10004KT 23/21 A3005 RMK A01 T02250209  RH  091%=      5-min Rain = 0
KOD1 111029Z 09004KT 23/21 A3005 RMK A01 T02250209  RH  091%=      5-min Rain = 0
KOD1 111030Z 09004KT 23/21 A3005 RMK A01 T02250209  RH  091%=      5-min Rain = 0
KOD1 111031Z 09005KT 23/21 A3005 RMK A01 T02250209  RH  091%=      5-min Rain = 0
KOD1 111032Z 09004KT 22/21 A3005 RMK A01 T02240209  RH  091%=      5-min Rain = 0
KOD1 111033Z 09005KT 22/21 A3005 RMK A01 T02240209  RH  091%=      5-min Rain = 0
KOD1 111034Z 09005KT 23/21 A3005 RMK A01 T02250209  RH  091%=      5-min Rain = 0
KOD1 111035Z 09004KT 23/21 A3005 RMK A01 T02250209  RH  091%=      5-min Rain = 0
KOD1 111036Z 09004KT 22/21 A3005 RMK A01 T02240209  RH  091%=      5-min Rain = 0
KOD1 111037Z 09005KT 22/21 A3005 RMK A01 T02240209  RH  091%=      5-min Rain = 0
KOD1 111038Z 09005KT 22/21 A3005 RMK A01 T02240209  RH  091%=      5-min Rain = 0
KOD1 111039Z 09005KT 22/21 A3005 RMK A01 T02240209  RH  091%=      5-min Rain = 0
KOD1 111040Z 09004KT 22/21 A3005 RMK A01 T02240209  RH  091%=      5-min Rain = 0
KOD1 111041Z 09005KT 22/21 A3005 RMK A01 T02240209  RH  091%=      5-min Rain = 0
KOD1 111042Z 09004KT 22/21 A3005 RMK A01 T02240209  RH  091%=      5-min Rain = 0
KOD1 111043Z 09004KT 22/21 A3005 RMK A01 T02240209  RH  091%=      5-min Rain = 0
KOD1 111044Z 09004KT 22/21 A3005 RMK A01 T02240209  RH  091%=      5-min Rain = 0
KOD1 111045Z 09004KT 22/21 A3005 RMK A01 T02240209  RH  091%=      5-min Rain = 0
KOD1 111046Z 09004KT 22/21 A3005 RMK A01 T02240209  RH  091%=      5-min Rain = 0
KOD1 111047Z 09005KT 22/21 A3005 RMK A01 T02240209  RH  091%=      5-min Rain = 0
KOD1 111048Z 08005KT 22/21 A3005 RMK A01 T02230209  RH  091%=      5-min Rain = 0
KOD1 111049Z 08005KT 22/21 A3005 RMK A01 T02230208  RH  091%=      5-min Rain = 0
KOD1 111050Z 08004KT 22/21 A3005 RMK A01 T02230208  RH  091%=      5-min Rain = 0
KOD1 111051Z 07004KT 22/21 A3005 RMK A01 T02230207  RH  091%=      5-min Rain = 0
KOD1 111052Z 07004KT 22/21 A3005 RMK A01 T02220207  RH  091%=      5-min Rain = 0
KOD1 111053Z 06004KT 22/21 A3005 RMK A01 T02220207  RH  091%=      5-min Rain = 0
KOD1 111054Z 06005KT 22/21 A3005 RMK A01 T02210206  RH  091%=      5-min Rain = 0
KOD1 111055Z 06005KT 22/21 A3005 RMK A01 T02210206  RH  091%=      5-min Rain = 0
KOD1 111056Z 07006KT 22/21 A3005 RMK A01 T02200206  RH  092%=      5-min Rain = 0
KOD1 111057Z 07006KT 22/21 A3006 RMK A01 T02200207  RH  092%=      5-min Rain = 0
KOD1 111058Z 07005KT 22/21 A3006 RMK A01 T02200207  RH  092%=      5-min Rain = 0
KOD1 111059Z 07005KT 22/21 A3006 RMK A01 T02200206  RH  092%=      5-min Rain = 0
KOD1 111100Z 07006KT 22/21 A3006 RMK A01 T02200206  RH  092%=      5-min Rain = 0
KOD1 111101Z 07005KT 22/21 A3006 RMK A01 T02200206  RH  092%=      5-min Rain = 0
KOD1 111102Z 08006KT 22/21 A3006 RMK A01 T02190206  RH  092%=      5-min Rain = 0
KOD1 111103Z 08006KT 22/21 A3006 RMK A01 T02190207  RH  093%=      5-min Rain = 0
KOD1 111104Z 08006KT 22/21 A3006 RMK A01 T02200207  RH  093%=      5-min Rain = 0
KOD1 111105Z 08006KT 22/21 A3006 RMK A01 T02200207  RH  093%=      5-min Rain = 0
KOD1 111106Z 08007KT 22/21 A3006 RMK A01 T02200207  RH  093%=      5-min Rain = 0
KOD1 111107Z 08006KT 22/21 A3006 RMK A01 T02200207  RH  093%=      5-min Rain = 0
KOD1 111108Z 08006KT 22/21 A3006 RMK A01 T02200207  RH  092%=      5-min Rain = 0
KOD1 111109Z 08005KT 22/21 A3006 RMK A01 T02200207  RH  092%=      5-min Rain = 0
KOD1 111110Z 08006KT 22/21 A3006 RMK A01 T02200207  RH  092%=      5-min Rain = 0
KOD1 111111Z 07006KT 22/21 A3006 RMK A01 T02200207  RH  092%=      5-min Rain = 0
KOD1 111112Z 08006KT 22/21 A3006 RMK A01 T02200207  RH  092%=      5-min Rain = 0
KOD1 111113Z 08006KT 22/21 A3006 RMK A01 T02200207  RH  092%=      5-min Rain = 0
KOD1 111114Z 07006KT 22/21 A3006 RMK A01 T02200207  RH  092%=      5-min Rain = 0
KOD1 111115Z 08005KT 22/21 A3006 RMK A01 T02190207  RH  092%=      5-min Rain = 0
KOD1 111116Z 08005KT 22/21 A3006 RMK A01 T02190207  RH  093%=      5-min Rain = 0
KOD1 111117Z 08006KT 22/21 A3006 RMK A01 T02190207  RH  093%=      5-min Rain = 0
KOD1 111118Z 08005KT 22/21 A3006 RMK A01 T02190207  RH  093%=      5-min Rain = 0
KOD1 111119Z 07005KT 22/21 A3006 RMK A01 T02190206  RH  093%=      5-min Rain = 0
KOD1 111120Z 07005KT 22/21 A3006 RMK A01 T02190206  RH  093%=      5-min Rain = 0
KOD1 111121Z 07004KT 22/21 A3006 RMK A01 T02190206  RH  093%=      5-min Rain = 0
KOD1 111122Z 07005KT 22/21 A3006 RMK A01 T02190206  RH  093%=      5-min Rain = 0
KOD1 111123Z 08005KT 22/21 A3006 RMK A01 T02180206  RH  093%=      5-min Rain = 0
KOD1 111124Z 08005KT 22/21 A3006 RMK A01 T02180206  RH  093%=      5-min Rain = 0
KOD1 111125Z 08005KT 22/21 A3006 RMK A01 T02180206  RH  093%=      5-min Rain = 0
KOD1 111126Z 07005KT 22/21 A3006 RMK A01 T02180206  RH  093%=      5-min Rain = 0
KOD1 111127Z 07005KT 22/21 A3006 RMK A01 T02180207  RH  093%=      5-min Rain = 0
KOD1 111128Z 07004KT 22/21 A3006 RMK A01 T02180206  RH  093%=      5-min Rain = 0
KOD1 111129Z 07005KT 22/21 A3006 RMK A01 T02180206  RH  093%=      5-min Rain = 0
KOD1 111130Z 07005KT 22/21 A3006 RMK A01 T02180206  RH  093%=      5-min Rain = 0
KOD1 111131Z 07005KT 22/21 A3006 RMK A01 T02180206  RH  093%=      5-min Rain = 0
KOD1 111132Z 07004KT 22/21 A3007 RMK A01 T02180206  RH  093%=      5-min Rain = 0
KOD1 111133Z 08004KT 22/21 A3007 RMK A01 T02180206  RH  093%=      5-min Rain = 0
KOD1 111134Z 08004KT 22/21 A3007 RMK A01 T02180206  RH  093%=      5-min Rain = 0
KOD1 111135Z 08004KT 22/21 A3007 RMK A01 T02180206  RH  093%=      5-min Rain = 0
KOD1 111136Z 08004KT 22/21 A3006 RMK A01 T02180207  RH  093%=      5-min Rain = 0
KOD1 111137Z 08004KT 22/21 A3006 RMK A01 T02180207  RH  093%=      5-min Rain = 0
KOD1 111138Z 09004KT 22/21 A3007 RMK A01 T02180207  RH  093%=      5-min Rain = 0
KOD1 111139Z 10003KT 22/21 A3007 RMK A01 T02180207  RH  094%=      5-min Rain = 0
KOD1 111140Z 10004KT 22/21 A3007 RMK A01 T02180208  RH  094%=      5-min Rain = 0
KOD1 111141Z 10003KT 22/21 A3007 RMK A01 T02190208  RH  094%=      5-min Rain = 0
KOD1 111142Z 09004KT 22/21 A3007 RMK A01 T02190208  RH  094%=      5-min Rain = 0
KOD1 111143Z 10004KT 22/21 A3007 RMK A01 T02190208  RH  094%=      5-min Rain = 0
KOD1 111144Z 10004KT 22/21 A3007 RMK A01 T02190208  RH  094%=      5-min Rain = 0
KOD1 111145Z 09004KT 22/21 A3007 RMK A01 T02190208  RH  094%=      5-min Rain = 0
KOD1 111146Z 10004KT 22/21 A3007 RMK A01 T02190208  RH  094%=      5-min Rain = 0
KOD1 111147Z 10004KT 22/21 A3007 RMK A01 T02190209  RH  094%=      5-min Rain = 0
KOD1 111148Z 10004KT 22/21 A3007 RMK A01 T02200209  RH  093%=      5-min Rain = 0
KOD1 111149Z 10004KT 22/21 A3007 RMK A01 T02200209  RH  093%=      5-min Rain = 0
KOD1 111150Z 10004KT 22/21 A3007 RMK A01 T02200209  RH  093%=      5-min Rain = 0
KOD1 111151Z 11004KT 22/21 A3007 RMK A01 T02200209  RH  093%=      5-min Rain = 0
KOD1 111152Z 11004KT 22/21 A3007 RMK A01 T02210209  RH  093%=      5-min Rain = 0
KOD1 111153Z 12003KT 22/21 A3007 RMK A01 T02210210  RH  093%=      5-min Rain = 0
KOD1 111154Z 12003KT 22/21 A3007 RMK A01 T02210210  RH  093%=      5-min Rain = 0
KOD1 111155Z 12002KT 22/21 A3007 RMK A01 T02210210  RH  093%=      5-min Rain = 0
KOD1 111156Z 11002KT 22/21 A3007 RMK A01 T02210210  RH  093%=      5-min Rain = 0
KOD1 111157Z 10003KT 22/21 A3007 RMK A01 T02220211  RH  093%=      5-min Rain = 0
KOD1 111158Z 10003KT 22/21 A3007 RMK A01 T02220211  RH  093%=      5-min Rain = 0
KOD1 111159Z 10003KT 22/21 A3007 RMK A01 T02220211  RH  093%=      5-min Rain = 0
KOD1 111200Z 09003KT 22/21 A3007 RMK A01 T02230211  RH  093%=      5-min Rain = 0
KOD1 111201Z 09003KT 22/21 A3007 RMK A01 T02230212  RH  093%=      5-min Rain = 0
KOD1 111202Z 09003KT 22/21 A3007 RMK A01 T02240212  RH  093%=      5-min Rain = 0
KOD1 111203Z 08003KT 22/21 A3007 RMK A01 T02230211  RH  093%=      5-min Rain = 0
KOD1 111204Z 09004KT 22/21 A3007 RMK A01 T02230211  RH  093%=      5-min Rain = 0
KOD1 111205Z 09004KT 22/21 A3007 RMK A01 T02240212  RH  093%=      5-min Rain = 0
KOD1 111206Z 09004KT 22/21 A3007 RMK A01 T02240212  RH  093%=      5-min Rain = 0
KOD1 111207Z 09004KT 22/21 A3007 RMK A01 T02240212  RH  093%=      5-min Rain = 0
KOD1 111208Z 10004KT 22/21 A3007 RMK A01 T02240212  RH  092%=      5-min Rain = 0
KOD1 111209Z 10004KT 23/21 A3007 RMK A01 T02250212  RH  092%=      5-min Rain = 0
KOD1 111210Z 10004KT 23/21 A3007 RMK A01 T02250212  RH  092%=      5-min Rain = 0
KOD1 111211Z 10003KT 23/21 A3007 RMK A01 T02260212  RH  092%=      5-min Rain = 0
KOD1 111212Z 09003KT 23/21 A3007 RMK A01 T02260213  RH  092%=      5-min Rain = 0
KOD1 111213Z 09004KT 23/21 A3007 RMK A01 T02260213  RH  092%=      5-min Rain = 0
KOD1 111214Z 08004KT 23/21 A3007 RMK A01 T02270213  RH  092%=      5-min Rain = 0
KOD1 111215Z 08004KT 23/21 A3007 RMK A01 T02270213  RH  092%=      5-min Rain = 0
KOD1 111216Z 08004KT 23/21 A3007 RMK A01 T02270213  RH  092%=      5-min Rain = 0
KOD1 111217Z 08003KT 23/21 A3007 RMK A01 T02270213  RH  091%=      5-min Rain = 0
KOD1 111218Z 07003KT 23/21 A3007 RMK A01 T02280213  RH  091%=      5-min Rain = 0
KOD1 111219Z 07003KT 23/21 A3007 RMK A01 T02280213  RH  091%=      5-min Rain = 0
KOD1 111220Z 07003KT 23/21 A3007 RMK A01 T02280213  RH  091%=      5-min Rain = 0
KOD1 111221Z 07003KT 23/21 A3007 RMK A01 T02280213  RH  091%=      5-min Rain = 0
KOD1 111222Z 08004KT 23/21 A3007 RMK A01 T02280213  RH  091%=      5-min Rain = 0
KOD1 111223Z 07004KT 23/21 A3007 RMK A01 T02280212  RH  091%=      5-min Rain = 0
KOD1 111224Z 08004KT 23/21 A3007 RMK A01 T02290213  RH  091%=      5-min Rain = 0
KOD1 111225Z 08004KT 23/21 A3007 RMK A01 T02290213  RH  091%=      5-min Rain = 0
KOD1 111226Z 08004KT 23/21 A3007 RMK A01 T02290213  RH  090%=      5-min Rain = 0
KOD1 111227Z 08005KT 23/21 A3007 RMK A01 T02290213  RH  090%=      5-min Rain = 0
KOD1 111228Z 08005KT 23/21 A3007 RMK A01 T02290213  RH  090%=      5-min Rain = 0
KOD1 111229Z 08004KT 23/21 A3007 RMK A01 T02300213  RH  090%=      5-min Rain = 0
KOD1 111230Z 09003KT 23/21 A3007 RMK A01 T02300213  RH  090%=      5-min Rain = 0
KOD1 111231Z 08004KT 23/21 A3007 RMK A01 T02300213  RH  090%=      5-min Rain = 0
KOD1 111232Z 09004KT 23/21 A3007 RMK A01 T02310213  RH  090%=      5-min Rain = 0
KOD1 111233Z 09004KT 23/21 A3007 RMK A01 T02310213  RH  089%=      5-min Rain = 0
KOD1 111234Z 09004KT 23/21 A3007 RMK A01 T02310213  RH  089%=      5-min Rain = 0
KOD1 111235Z 09003KT 23/21 A3007 RMK A01 T02310213  RH  089%=      5-min Rain = 0
KOD1 111236Z 09005KT 23/21 A3007 RMK A01 T02310213  RH  089%=      5-min Rain = 0
KOD1 111237Z 09005KT 23/21 A3007 RMK A01 T02310212  RH  089%=      5-min Rain = 0
KOD1 111238Z 09005KT 23/21 A3007 RMK A01 T02310212  RH  089%=      5-min Rain = 0
KOD1 111239Z 09004KT 23/21 A3007 RMK A01 T02310212  RH  089%=      5-min Rain = 0
KOD1 111240Z 10004KT 23/21 A3007 RMK A01 T02310213  RH  089%=      5-min Rain = 0
KOD1 111241Z 09004KT 23/21 A3007 RMK A01 T02310213  RH  089%=      5-min Rain = 0
KOD1 111242Z 10006KT 23/21 A3007 RMK A01 T02310213  RH  089%=      5-min Rain = 0
KOD1 111243Z 10005KT 23/21 A3007 RMK A01 T02310212  RH  089%=      5-min Rain = 0
KOD1 111244Z 10005KT 23/21 A3007 RMK A01 T02310213  RH  089%=      5-min Rain = 0
KOD1 111245Z 10004KT 23/21 A3007 RMK A01 T02310213  RH  089%=      5-min Rain = 0
KOD1 111246Z 11005KT 23/21 A3007 RMK A01 T02320213  RH  089%=      5-min Rain = 0
KOD1 111247Z 10004KT 23/21 A3007 RMK A01 T02320213  RH  089%=      5-min Rain = 0
KOD1 111248Z 10004KT 23/21 A3007 RMK A01 T02320213  RH  089%=      5-min Rain = 0
KOD1 111249Z 10004KT 23/21 A3007 RMK A01 T02320213  RH  089%=      5-min Rain = 0
KOD1 111250Z 10005KT 23/21 A3007 RMK A01 T02320213  RH  089%=      5-min Rain = 0
KOD1 111251Z 10005KT 23/21 A3007 RMK A01 T02330213  RH  089%=      5-min Rain = 0
KOD1 111252Z 10005KT 23/21 A3007 RMK A01 T02330214  RH  089%=      5-min Rain = 0
KOD1 111253Z 09006KT 23/21 A3007 RMK A01 T02330213  RH  088%=      5-min Rain = 0
KOD1 111254Z 09006KT 23/21 A3007 RMK A01 T02330213  RH  088%=      5-min Rain = 0
KOD1 111255Z 09006KT 23/21 A3007 RMK A01 T02330213  RH  088%=      5-min Rain = 0
KOD1 111256Z 09006KT 23/21 A3007 RMK A01 T02340213  RH  088%=      5-min Rain = 0
KOD1 111257Z 09007KT 23/21 A3007 RMK A01 T02340213  RH  088%=      5-min Rain = 0
KOD1 111258Z 09006KT 23/21 A3007 RMK A01 T02340214  RH  088%=      5-min Rain = 0
KOD1 111259Z 10007KT 23/21 A3007 RMK A01 T02340213  RH  088%=      5-min Rain = 0
KOD1 111300Z 09006KT 24/21 A3007 RMK A01 T02350214  RH  088%=      5-min Rain = 0
KOD1 111301Z 09006KT 24/21 A3007 RMK A01 T02350214  RH  088%=      5-min Rain = 0
KOD1 111302Z 10007KT 24/21 A3007 RMK A01 T02350213  RH  087%=      5-min Rain = 0
KOD1 111303Z 10006KT 24/21 A3007 RMK A01 T02360214  RH  087%=      5-min Rain = 0
KOD1 111304Z 10005KT 24/21 A3007 RMK A01 T02360214  RH  087%=      5-min Rain = 0
KOD1 111305Z 10006KT 24/21 A3007 RMK A01 T02360214  RH  087%=      5-min Rain = 0
KOD1 111306Z 11006KT 24/22 A3007 RMK A01 T02370215  RH  087%=      5-min Rain = 0
KOD1 111307Z 10007KT 24/22 A3007 RMK A01 T02380215  RH  087%=      5-min Rain = 0
KOD1 111308Z 10007KT 24/21 A3007 RMK A01 T02390214  RH  086%=      5-min Rain = 0
KOD1 111309Z 10007KT 24/21 A3007 RMK A01 T02400214  RH  086%=      5-min Rain = 0
KOD1 111310Z 10007KT 24/21 A3007 RMK A01 T02400214  RH  085%=      5-min Rain = 0
KOD1 111311Z 10007KT 24/21 A3007 RMK A01 T02410214  RH  085%=      5-min Rain = 0
KOD1 111312Z 10007KT 24/21 A3007 RMK A01 T02410214  RH  085%=      5-min Rain = 0
KOD1 111313Z 10006KT 24/22 A3007 RMK A01 T02420215  RH  085%=      5-min Rain = 0
KOD1 111314Z 10007KT 24/22 A3008 RMK A01 T02430215  RH  084%=      5-min Rain = 0
KOD1 111315Z 11006KT 24/22 A3008 RMK A01 T02440215  RH  084%=      5-min Rain = 0
KOD1 111316Z 10005KT 25/22 A3008 RMK A01 T02450216  RH  084%=      5-min Rain = 0
KOD1 111317Z 10005KT 25/22 A3008 RMK A01 T02460216  RH  084%=      5-min Rain = 0
KOD1 111318Z 10007KT 25/22 A3008 RMK A01 T02460215  RH  083%=      5-min Rain = 0
KOD1 111319Z 10008KT 25/21 A3008 RMK A01 T02470214  RH  082%=      5-min Rain = 0
KOD1 111320Z 11008KT 25/21 A3008 RMK A01 T02470213  RH  082%=      5-min Rain = 0
KOD1 111321Z 11007KT 25/21 A3008 RMK A01 T02470213  RH  082%=      5-min Rain = 0
KOD1 111322Z 11006KT 25/21 A3008 RMK A01 T02470214  RH  082%=      5-min Rain = 0
KOD1 111323Z 11006KT 25/22 A3008 RMK A01 T02480215  RH  082%=      5-min Rain = 0
KOD1 111324Z 11006KT 25/21 A3008 RMK A01 T02490214  RH  081%=      5-min Rain = 0
KOD1 111325Z 12006KT 25/22 A3008 RMK A01 T02490215  RH  081%=      5-min Rain = 0
KOD1 111326Z 11006KT 25/21 A3008 RMK A01 T02500214  RH  081%=      5-min Rain = 0
KOD1 111327Z 11007KT 25/21 A3008 RMK A01 T02500214  RH  080%=      5-min Rain = 0
KOD1 111328Z 11006KT 25/21 A3008 RMK A01 T02500214  RH  080%=      5-min Rain = 0
KOD1 111329Z 11006KT 25/22 A3008 RMK A01 T02510215  RH  080%=      5-min Rain = 0
KOD1 111330Z 11006KT 25/22 A3008 RMK A01 T02520215  RH  080%=      5-min Rain = 0
KOD1 111331Z 11005KT 25/21 A3008 RMK A01 T02520214  RH  079%=      5-min Rain = 0
KOD1 111332Z 11005KT 25/22 A3008 RMK A01 T02520215  RH  080%=      5-min Rain = 0
KOD1 111333Z 10005KT 25/22 A3008 RMK A01 T02530216  RH  080%=      5-min Rain = 0
KOD1 111334Z 11004KT 26/22 A3008 RMK A01 T02550219  RH  080%=      5-min Rain = 0
KOD1 111335Z 11004KT 26/22 A3008 RMK A01 T02560217  RH  079%=      5-min Rain = 0
KOD1 111336Z 13006KT 26/22 A3008 RMK A01 T02570216  RH  078%=      5-min Rain = 0
KOD1 111337Z 13006KT 26/21 A3008 RMK A01 T02560213  RH  077%=      5-min Rain = 0
KOD1 111338Z 13005KT 26/21 A3008 RMK A01 T02550213  RH  077%=      5-min Rain = 0
KOD1 111339Z 11005KT 26/21 A3008 RMK A01 T02550213  RH  078%=      5-min Rain = 0
KOD1 111340Z 13006KT 25/21 A3008 RMK A01 T02540214  RH  078%=      5-min Rain = 0
KOD1 111341Z 13006KT 25/21 A3008 RMK A01 T02540213  RH  078%=      5-min Rain = 0
KOD1 111342Z 13005KT 25/21 A3008 RMK A01 T02530213  RH  078%=      5-min Rain = 0
KOD1 111343Z 12006KT 25/21 A3008 RMK A01 T02530214  RH  079%=      5-min Rain = 0
KOD1 111344Z 12005KT 25/21 A3008 RMK A01 T02530214  RH  079%=      5-min Rain = 0
KOD1 111345Z 13005KT 25/21 A3008 RMK A01 T02540214  RH  079%=      5-min Rain = 0
KOD1 111346Z 12005KT 26/22 A3008 RMK A01 T02550216  RH  079%=      5-min Rain = 0
KOD1 111347Z 11005KT 26/22 A3008 RMK A01 T02560216  RH  079%=      5-min Rain = 0
KOD1 111348Z 10006KT 26/22 A3008 RMK A01 T02570217  RH  078%=      5-min Rain = 0
KOD1 111349Z 11006KT 26/22 A3008 RMK A01 T02570216  RH  078%=      5-min Rain = 0
KOD1 111350Z 12005KT 26/22 A3008 RMK A01 T02580216  RH  078%=      5-min Rain = 0
KOD1 111351Z 10005KT 26/22 A3008 RMK A01 T02580217  RH  078%=      5-min Rain = 0
KOD1 111352Z 10006KT 26/22 A3008 RMK A01 T02580216  RH  078%=      5-min Rain = 0
KOD1 111353Z 11006KT 26/22 A3008 RMK A01 T02580215  RH  077%=      5-min Rain = 0
KOD1 111354Z 10005KT 26/22 A3008 RMK A01 T02580216  RH  078%=      5-min Rain = 0
KOD1 111355Z 12006KT 26/22 A3008 RMK A01 T02580216  RH  078%=      5-min Rain = 0
KOD1 111356Z 12006KT 26/22 A3008 RMK A01 T02580216  RH  078%=      5-min Rain = 0
KOD1 111357Z 13007KT 26/22 A3008 RMK A01 T02570215  RH  077%=      5-min Rain = 0
KOD1 111358Z 12006KT 26/21 A3008 RMK A01 T02570214  RH  077%=      5-min Rain = 0
KOD1 111359Z 12006KT 26/22 A3008 RMK A01 T02570215  RH  078%=      5-min Rain = 0
KOD1 111400Z 12006KT 26/22 A3008 RMK A01 T02570216  RH  078%=      5-min Rain = 0
KOD1 111401Z 13007KT 26/22 A3008 RMK A01 T02570215  RH  078%=      5-min Rain = 0
KOD1 111402Z 13006KT 26/22 A3008 RMK A01 T02560215  RH  078%=      5-min Rain = 0
KOD1 111403Z 13006KT 26/22 A3008 RMK A01 T02560215  RH  078%=      5-min Rain = 0
KOD1 111404Z 12006KT 26/22 A3008 RMK A01 T02560215  RH  078%=      5-min Rain = 0
KOD1 111405Z 13005KT 26/22 A3008 RMK A01 T02560215  RH  078%=      5-min Rain = 0
KOD1 111406Z 13005KT 26/22 A3008 RMK A01 T02560216  RH  078%=      5-min Rain = 0
KOD1 111407Z 12006KT 26/22 A3008 RMK A01 T02570216  RH  078%=      5-min Rain = 0
KOD1 111408Z 13006KT 26/22 A3008 RMK A01 T02560215  RH  078%=      5-min Rain = 0
KOD1 111409Z 12005KT 26/22 A3008 RMK A01 T02560216  RH  078%=      5-min Rain = 0
KOD1 111410Z 12006KT 26/22 A3009 RMK A01 T02560215  RH  078%=      5-min Rain = 0
KOD1 111411Z 12006KT 26/22 A3009 RMK A01 T02560215  RH  078%=      5-min Rain = 0
KOD1 111412Z 11006KT 26/22 A3009 RMK A01 T02560215  RH  078%=      5-min Rain = 0
KOD1 111413Z 11006KT 26/22 A3009 RMK A01 T02560215  RH  078%=      5-min Rain = 0
KOD1 111414Z 11007KT 26/22 A3009 RMK A01 T02560215  RH  078%=      5-min Rain = 0
KOD1 111415Z 11007KT 26/22 A3009 RMK A01 T02550215  RH  078%=      5-min Rain = 0
KOD1 111416Z 11007KT 26/22 A3009 RMK A01 T02560215  RH  078%=      5-min Rain = 0
KOD1 111417Z 12006KT 26/22 A3009 RMK A01 T02560217  RH  079%=      5-min Rain = 0
KOD1 111418Z 12006KT 26/22 A3009 RMK A01 T02560216  RH  078%=      5-min Rain = 0
KOD1 111419Z 11005KT 26/22 A3009 RMK A01 T02570217  RH  079%=      5-min Rain = 0
KOD1 111420Z 11005KT 26/22 A3009 RMK A01 T02580218  RH  078%=      5-min Rain = 0
KOD1 111421Z 12005KT 26/22 A3009 RMK A01 T02590218  RH  078%=      5-min Rain = 0
KOD1 111422Z 12007KT 26/22 A3009 RMK A01 T02590215  RH  077%=      5-min Rain = 0
KOD1 111423Z 12006KT 26/22 A3009 RMK A01 T02580216  RH  077%=      5-min Rain = 0
KOD1 111424Z 11006KT 26/22 A3009 RMK A01 T02590215  RH  077%=      5-min Rain = 0
KOD1 111425Z 12007KT 26/22 A3009 RMK A01 T02590216  RH  077%=      5-min Rain = 0
KOD1 111426Z 12007KT 26/22 A3009 RMK A01 T02590216  RH  077%=      5-min Rain = 0
KOD1 111427Z 13006KT 26/22 A3009 RMK A01 T02580216  RH  077%=      5-min Rain = 0
KOD1 111428Z 12006KT 26/22 A3009 RMK A01 T02590218  RH  078%=      5-min Rain = 0
KOD1 111429Z 12007KT 26/22 A3009 RMK A01 T02600215  RH  076%=      5-min Rain = 0
KOD1 111430Z 11007KT 26/21 A3009 RMK A01 T02600214  RH  076%=      5-min Rain = 0
KOD1 111431Z 11007KT 26/21 A3009 RMK A01 T02600213  RH  076%=      5-min Rain = 0
KOD1 111432Z 12006KT 26/22 A3009 RMK A01 T02600215  RH  076%=      5-min Rain = 0
KOD1 111433Z 14006KT 26/22 A3009 RMK A01 T02600215  RH  076%=      5-min Rain = 0
KOD1 111434Z 13006KT 26/22 A3009 RMK A01 T02600215  RH  076%=      5-min Rain = 0
KOD1 111435Z 13006KT 26/22 A3009 RMK A01 T02600216  RH  077%=      5-min Rain = 0
KOD1 111436Z 14005KT 26/22 A3009 RMK A01 T02610216  RH  076%=      5-min Rain = 0
KOD1 111437Z 14006KT 26/22 A3009 RMK A01 T02620216  RH  076%=      5-min Rain = 0
KOD1 111438Z 12005KT 26/22 A3009 RMK A01 T02620215  RH  075%=      5-min Rain = 0
KOD1 111439Z 12006KT 26/22 A3009 RMK A01 T02640216  RH  075%=      5-min Rain = 0
KOD1 111440Z 11005KT 27/22 A3009 RMK A01 T02650216  RH  074%=      5-min Rain = 0
KOD1 111441Z 13006KT 27/21 A3009 RMK A01 T02660214  RH  073%=      5-min Rain = 0
KOD1 111442Z 15005KT 27/21 A3009 RMK A01 T02660214  RH  073%=      5-min Rain = 0
KOD1 111443Z 13004KT 27/22 A3009 RMK A01 T02680217  RH  074%=      5-min Rain = 0
KOD1 111444Z 13005KT 27/22 A3009 RMK A01 T02690215  RH  072%=      5-min Rain = 0
KOD1 111445Z 13006KT 27/22 A3009 RMK A01 T02690215  RH  072%=      5-min Rain = 0
KOD1 111446Z 13006KT 27/22 A3009 RMK A01 T02690215  RH  072%=      5-min Rain = 0
KOD1 111447Z 13004KT 27/21 A3009 RMK A01 T02690214  RH  072%=      5-min Rain = 0
KOD1 111448Z 14004KT 27/22 A3009 RMK A01 T02690217  RH  073%=      5-min Rain = 0
KOD1 111449Z 16005KT 27/21 A3009 RMK A01 T02700213  RH  071%=      5-min Rain = 0
KOD1 111450Z 17004KT 27/21 A3009 RMK A01 T02700212  RH  070%=      5-min Rain = 0
KOD1 111451Z 15003KT 27/21 A3009 RMK A01 T02700211  RH  070%=      5-min Rain = 0
KOD1 111452Z 12002KT 27/21 A3009 RMK A01 T02700211  RH  070%=      5-min Rain = 0
KOD1 111453Z 14004KT 27/21 A3009 RMK A01 T02700211  RH  070%=      5-min Rain = 0
KOD1 111454Z 17005KT 27/21 A3009 RMK A01 T02710212  RH  070%=      5-min Rain = 0
KOD1 111455Z 17005KT 27/21 A3009 RMK A01 T02710211  RH  070%=      5-min Rain = 0
KOD1 111456Z 19003KT 27/22 A3009 RMK A01 T02730215  RH  071%=      5-min Rain = 0
KOD1 111457Z 20003KT 27/21 A3009 RMK A01 T02740214  RH  070%=      5-min Rain = 0
KOD1 111458Z 16003KT 27/21 A3009 RMK A01 T02740213  RH  069%=      5-min Rain = 0
KOD1 111459Z 15003KT 27/21 A3009 RMK A01 T02740213  RH  069%=      5-min Rain = 0
KOD1 111500Z 13002KT 27/21 A3009 RMK A01 T02740212  RH  069%=      5-min Rain = 0
KOD1 111501Z 16001KT 28/21 A3009 RMK A01 T02750214  RH  069%=      5-min Rain = 0
KOD1 111502Z 16003KT 28/22 A3009 RMK A01 T02770216  RH  069%=      5-min Rain = 0
KOD1 111503Z 15004KT 28/22 A3009 RMK A01 T02790215  RH  068%=      5-min Rain = 0
KOD1 111504Z 15006KT 28/21 A3009 RMK A01 T02790213  RH  068%=      5-min Rain = 0
KOD1 111505Z 12004KT 28/21 A3009 RMK A01 T02780213  RH  068%=      5-min Rain = 0
KOD1 111506Z 15003KT 28/21 A3009 RMK A01 T02790214  RH  068%=      5-min Rain = 0
KOD1 111507Z 12003KT 28/21 A3009 RMK A01 T02800214  RH  067%=      5-min Rain = 0
KOD1 111508Z 10002KT 28/22 A3009 RMK A01 T02810215  RH  067%=      5-min Rain = 0
KOD1 111509Z 14005KT 28/21 A3009 RMK A01 T02820214  RH  067%=      5-min Rain = 0
KOD1 111510Z 18003KT 28/22 A3009 RMK A01 T02840218  RH  067%=      5-min Rain = 0
KOD1 111511Z 17004KT 29/22 A3009 RMK A01 T02850218  RH  067%=      5-min Rain = 0
KOD1 111512Z 17004KT 29/21 A3009 RMK A01 T02850211  RH  064%=      5-min Rain = 0
KOD1 111513Z 17004KT 28/21 A3009 RMK A01 T02840212  RH  065%=      5-min Rain = 0
KOD1 111514Z 17004KT 28/21 A3009 RMK A01 T02830212  RH  065%=      5-min Rain = 0
KOD1 111515Z 14004KT 28/21 A3009 RMK A01 T02820213  RH  066%=      5-min Rain = 0
KOD1 111516Z 14004KT 28/21 A3009 RMK A01 T02820212  RH  066%=      5-min Rain = 0
KOD1 111517Z 14003KT 28/21 A3009 RMK A01 T02820214  RH  066%=      5-min Rain = 0
KOD1 111518Z 16004KT 28/21 A3009 RMK A01 T02830212  RH  065%=      5-min Rain = 0
KOD1 111519Z 16003KT 28/21 A3009 RMK A01 T02830210  RH  065%=      5-min Rain = 0
KOD1 111520Z 13002KT 28/21 A3009 RMK A01 T02820211  RH  065%=      5-min Rain = 0
KOD1 111521Z 14001KT 28/21 A3009 RMK A01 T02820211  RH  065%=      5-min Rain = 0
KOD1 111522Z 15002KT 28/21 A3009 RMK A01 T02830211  RH  065%=      5-min Rain = 0
KOD1 111523Z 16004KT 28/21 A3009 RMK A01 T02830213  RH  066%=      5-min Rain = 0
KOD1 111524Z 16003KT 28/21 A3009 RMK A01 T02840211  RH  065%=      5-min Rain = 0
KOD1 111525Z 14003KT 28/21 A3009 RMK A01 T02830211  RH  065%=      5-min Rain = 0
KOD1 111526Z 13003KT 28/21 A3009 RMK A01 T02830211  RH  065%=      5-min Rain = 0
KOD1 111527Z 13005KT 28/21 A3009 RMK A01 T02840213  RH  065%=      5-min Rain = 0
KOD1 111528Z 14004KT 28/21 A3009 RMK A01 T02840212  RH  065%=      5-min Rain = 0
KOD1 111529Z 13005KT 28/21 A3009 RMK A01 T02840211  RH  065%=      5-min Rain = 0
KOD1 111530Z 13005KT 28/21 A3009 RMK A01 T02840212  RH  065%=      5-min Rain = 0
KOD1 111531Z 15005KT 29/22 A3009 RMK A01 T02850215  RH  066%=      5-min Rain = 0
KOD1 111532Z 15005KT 29/21 A3009 RMK A01 T02860212  RH  064%=      5-min Rain = 0
KOD1 111533Z 15004KT 29/21 A3008 RMK A01 T02860214  RH  065%=      5-min Rain = 0
KOD1 111534Z 16005KT 29/21 A3008 RMK A01 T02880213  RH  064%=      5-min Rain = 0
KOD1 111535Z 14003KT 29/21 A3008 RMK A01 T02890214  RH  064%=      5-min Rain = 0
KOD1 111536Z 14004KT 29/22 A3008 RMK A01 T02910215  RH  064%=      5-min Rain = 0
KOD1 111537Z 16005KT 29/21 A3008 RMK A01 T02930214  RH  063%=      5-min Rain = 0
KOD1 111538Z 18004KT 29/21 A3008 RMK A01 T02930212  RH  062%=      5-min Rain = 0
KOD1 111539Z 15004KT 29/22 A3008 RMK A01 T02940216  RH  063%=      5-min Rain = 0
KOD1 111540Z 16003KT 30/21 A3008 RMK A01 T02950212  RH  061%=      5-min Rain = 0
KOD1 111541Z 16003KT 30/21 A3008 RMK A01 T02950213  RH  061%=      5-min Rain = 0
KOD1 111542Z 17004KT 30/21 A3008 RMK A01 T02960214  RH  062%=      5-min Rain = 0
KOD1 111543Z 16003KT 30/22 A3008 RMK A01 T02970216  RH  062%=      5-min Rain = 0
KOD1 111544Z 12003KT 30/21 A3008 RMK A01 T02970214  RH  061%=      5-min Rain = 0
KOD1 111545Z 15005KT 30/21 A3008 RMK A01 T02980213  RH  060%=      5-min Rain = 0
KOD1 111546Z 16004KT 30/21 A3008 RMK A01 T02970211  RH  060%=      5-min Rain = 0
KOD1 111547Z 15004KT 30/21 A3008 RMK A01 T02970213  RH  061%=      5-min Rain = 0
KOD1 111548Z 18005KT 30/21 A3008 RMK A01 T02980213  RH  060%=      5-min Rain = 0
KOD1 111549Z 20003KT 30/21 A3008 RMK A01 T02980212  RH  060%=      5-min Rain = 0
KOD1 111550Z 18004KT 30/21 A3008 RMK A01 T02970212  RH  060%=      5-min Rain = 0
KOD1 111551Z 20003KT 30/21 A3008 RMK A01 T02970214  RH  061%=      5-min Rain = 0
KOD1 111552Z 14003KT 30/21 A3008 RMK A01 T02970211  RH  060%=      5-min Rain = 0
KOD1 111553Z 15003KT 30/21 A3008 RMK A01 T02970211  RH  060%=      5-min Rain = 0
KOD1 111554Z 13003KT 30/21 A3008 RMK A01 T02970209  RH  059%=      5-min Rain = 0
KOD1 111555Z 13002KT 30/21 A3008 RMK A01 T02960209  RH  060%=      5-min Rain = 0
KOD1 111556Z 13005KT 30/21 A3008 RMK A01 T02960211  RH  060%=      5-min Rain = 0
KOD1 111557Z 16004KT 30/21 A3008 RMK A01 T02960211  RH  060%=      5-min Rain = 0
KOD1 111558Z 15002KT 30/21 A3008 RMK A01 T02970212  RH  060%=      5-min Rain = 0
KOD1 111559Z 18002KT 30/21 A3008 RMK A01 T02980211  RH  060%=      5-min Rain = 0
KOD1 111600Z 13003KT 30/21 A3008 RMK A01 T03000212  RH  059%=      5-min Rain = 0
KOD1 111601Z 15005KT 30/21 A3008 RMK A01 T03000211  RH  059%=      5-min Rain = 0
KOD1 111602Z 14005KT 30/21 A3008 RMK A01 T03010211  RH  059%=      5-min Rain = 0
KOD1 111603Z 13004KT 30/21 A3008 RMK A01 T03010211  RH  059%=      5-min Rain = 0
KOD1 111604Z 16005KT 30/21 A3008 RMK A01 T03020213  RH  059%=      5-min Rain = 0
KOD1 111605Z 15004KT 30/21 A3008 RMK A01 T03030211  RH  058%=      5-min Rain = 0
KOD1 111606Z 13003KT 30/21 A3008 RMK A01 T03030211  RH  058%=      5-min Rain = 0
KOD1 111607Z 13002KT 30/21 A3008 RMK A01 T03040212  RH  058%=      5-min Rain = 0
KOD1 111608Z 06002KT 31/21 A3008 RMK A01 T03060214  RH  058%=      5-min Rain = 0
KOD1 111609Z 35002KT 31/21 A3008 RMK A01 T03070213  RH  057%=      5-min Rain = 0
KOD1 111610Z 34001KT 31/21 A3008 RMK A01 T03080212  RH  057%=      5-min Rain = 0
KOD1 111611Z 19002KT 31/21 A3008 RMK A01 T03090210  RH  056%=      5-min Rain = 0
KOD1 111612Z 19005KT 31/21 A3008 RMK A01 T03090206  RH  054%=      5-min Rain = 0
KOD1 111613Z 21007KT 31/20 A3008 RMK A01 T03100204  RH  053%=      5-min Rain = 0
KOD1 111614Z 27006KT 31/21 A3008 RMK A01 T03110212  RH  056%=      5-min Rain = 0
KOD1 111615Z 28004KT 31/21 A3007 RMK A01 T03120211  RH  055%=      5-min Rain = 0
KOD1 111616Z 25004KT 31/21 A3007 RMK A01 T03120209  RH  054%=      5-min Rain = 0
KOD1 111617Z 22005KT 31/20 A3007 RMK A01 T03120202  RH  052%=      5-min Rain = 0
KOD1 111618Z 24003KT 31/20 A3007 RMK A01 T03120198  RH  051%=      5-min Rain = 0
KOD1 111619Z 36002KT 31/20 A3007 RMK A01 T03130198  RH  050%=      5-min Rain = 0
KOD1 111620Z 29005KT 31/20 A3007 RMK A01 T03140202  RH  052%=      5-min Rain = 0
KOD1 111621Z 23005KT 32/20 A3007 RMK A01 T03150202  RH  051%=      5-min Rain = 0
KOD1 111622Z 26005KT 32/20 A3007 RMK A01 T03160199  RH  050%=      5-min Rain = 0
KOD1 111623Z 25005KT 32/20 A3007 RMK A01 T03170199  RH  050%=      5-min Rain = 0
KOD1 111624Z 24005KT 32/20 A3007 RMK A01 T03170201  RH  050%=      5-min Rain = 0
KOD1 111625Z 25003KT 32/20 A3007 RMK A01 T03170199  RH  050%=      5-min Rain = 0
KOD1 111626Z 24004KT 32/20 A3007 RMK A01 T03170201  RH  050%=      5-min Rain = 0
KOD1 111627Z 25005KT 32/20 A3007 RMK A01 T03180195  RH  048%=      5-min Rain = 0
KOD1 111628Z 25004KT 32/20 A3007 RMK A01 T03180200  RH  050%=      5-min Rain = 0
KOD1 111629Z 26003KT 32/20 A3007 RMK A01 T03180195  RH  048%=      5-min Rain = 0
KOD1 111630Z 27003KT 32/20 A3007 RMK A01 T03180195  RH  048%=      5-min Rain = 0
KOD1 111631Z 26002KT 32/20 A3007 RMK A01 T03180197  RH  049%=      5-min Rain = 0
KOD1 111632Z 20003KT 32/20 A3007 RMK A01 T03180199  RH  049%=      5-min Rain = 0
KOD1 111633Z 20003KT 32/20 A3007 RMK A01 T03190202  RH  050%=      5-min Rain = 0
KOD1 111634Z 19007KT 32/20 A3007 RMK A01 T03190202  RH  050%=      5-min Rain = 0
KOD1 111635Z 19006KT 32/20 A3007 RMK A01 T03180203  RH  051%=      5-min Rain = 0
KOD1 111636Z 20005KT 32/20 A3007 RMK A01 T03180202  RH  050%=      5-min Rain = 0
KOD1 111637Z 19003KT 32/20 A3007 RMK A01 T03180200  RH  050%=      5-min Rain = 0
KOD1 111638Z 21001KT 32/20 A3007 RMK A01 T03190201  RH  050%=      5-min Rain = 0
KOD1 111639Z 20002KT 32/20 A3007 RMK A01 T03210202  RH  050%=      5-min Rain = 0
KOD1 111640Z 23004KT 32/20 A3007 RMK A01 T03210199  RH  048%=      5-min Rain = 0
KOD1 111641Z 28002KT 32/20 A3007 RMK A01 T03210202  RH  049%=      5-min Rain = 0
KOD1 111642Z 18002KT 32/20 A3007 RMK A01 T03230202  RH  049%=      5-min Rain = 0
KOD1 111643Z 24004KT 33/20 A3007 RMK A01 T03250198  RH  047%=      5-min Rain = 0
KOD1 111644Z 24004KT 33/20 A3007 RMK A01 T03250195  RH  046%=      5-min Rain = 0
KOD1 111645Z 25004KT 33/20 A3007 RMK A01 T03260201  RH  048%=      5-min Rain = 0
KOD1 111646Z 24007G12KT 33/20 A3007 RMK A01 T03270202  RH  048%=      5-min Rain = 0
KOD1 111647Z 24006KT 33/20 A3007 RMK A01 T03280195  RH  046%=      5-min Rain = 0
KOD1 111648Z 24005KT 33/19 A3007 RMK A01 T03270194  RH  045%=      5-min Rain = 0
KOD1 111649Z 24004KT 33/19 A3007 RMK A01 T03260194  RH  046%=      5-min Rain = 0
KOD1 111650Z 27005KT 33/20 A3007 RMK A01 T03260196  RH  046%=      5-min Rain = 0
KOD1 111651Z 27004KT 33/19 A3007 RMK A01 T03280191  RH  044%=      5-min Rain = 0
KOD1 111652Z 26004KT 33/19 A3007 RMK A01 T03290186  RH  043%=      5-min Rain = 0
KOD1 111653Z 30002KT 33/19 A3007 RMK A01 T03290189  RH  044%=      5-min Rain = 0
KOD1 111654Z 26005KT 33/19 A3007 RMK A01 T03290192  RH  044%=      5-min Rain = 0
KOD1 111655Z 28004KT 33/19 A3007 RMK A01 T03310193  RH  044%=      5-min Rain = 0
KOD1 111656Z 30003KT 33/19 A3007 RMK A01 T03310188  RH  043%=      5-min Rain = 0
KOD1 111657Z 28004KT 33/19 A3007 RMK A01 T03310188  RH  043%=      5-min Rain = 0
KOD1 111658Z 25008KT 33/18 A3007 RMK A01 T03300181  RH  041%=      5-min Rain = 0
KOD1 111659Z 24006KT 33/18 A3007 RMK A01 T03300184  RH  042%=      5-min Rain = 0
KOD1 111700Z 22007KT 33/18 A3007 RMK A01 T03300181  RH  041%=      5-min Rain = 0
KOD1 111701Z 22005KT 33/18 A3007 RMK A01 T03300183  RH  042%=      5-min Rain = 0
KOD1 111702Z 24006KT 33/18 A3007 RMK A01 T03300184  RH  042%=      5-min Rain = 0
KOD1 111703Z 22006KT 33/19 A3007 RMK A01 T03310187  RH  043%=      5-min Rain = 0
KOD1 111704Z 21004KT 33/18 A3007 RMK A01 T03320184  RH  042%=      5-min Rain = 0
KOD1 111705Z 20005KT 33/18 A3007 RMK A01 T03320182  RH  041%=      5-min Rain = 0
KOD1 111706Z 24007KT 33/18 A3007 RMK A01 T03310183  RH  041%=      5-min Rain = 0
KOD1 111707Z 26006KT 33/18 A3007 RMK A01 T03310182  RH  041%=      5-min Rain = 0
KOD1 111708Z 29004KT 33/17 A3007 RMK A01 T03320174  RH  039%=      5-min Rain = 0
KOD1 111709Z 30004KT 33/18 A3007 RMK A01 T03320177  RH  040%=      5-min Rain = 0
KOD1 111710Z 28007KT 33/18 A3007 RMK A01 T03330179  RH  040%=      5-min Rain = 0
KOD1 111711Z 30004KT 33/18 A3007 RMK A01 T03330177  RH  040%=      5-min Rain = 0
KOD1 111712Z 31005KT 33/18 A3007 RMK A01 T03340182  RH  041%=      5-min Rain = 0
KOD1 111713Z 30005KT 34/18 A3007 RMK A01 T03360180  RH  040%=      5-min Rain = 0
KOD1 111714Z 25003KT 34/17 A3007 RMK A01 T03360174  RH  038%=      5-min Rain = 0
KOD1 111715Z 30005KT 34/18 A3007 RMK A01 T03360179  RH  039%=      5-min Rain = 0
KOD1 111716Z 30006KT 34/18 A3006 RMK A01 T03360176  RH  039%=      5-min Rain = 0
KOD1 111717Z 35002KT 34/17 A3007 RMK A01 T03360173  RH  038%=      5-min Rain = 0
KOD1 111718Z 36004KT 34/17 A3006 RMK A01 T03360173  RH  038%=      5-min Rain = 0
KOD1 111719Z 02003KT 34/17 A3006 RMK A01 T03360168  RH  037%=      5-min Rain = 0
KOD1 111720Z 33002KT 34/17 A3006 RMK A01 T03360173  RH  038%=      5-min Rain = 0
KOD1 111721Z 33002KT 34/18 A3006 RMK A01 T03360180  RH  040%=      5-min Rain = 0
KOD1 111722Z 30004KT 34/18 A3006 RMK A01 T03380182  RH  040%=      5-min Rain = 0
KOD1 111723Z 29004KT 34/18 A3006 RMK A01 T03390181  RH  039%=      5-min Rain = 0
KOD1 111724Z 28004KT 34/19 A3006 RMK A01 T03390187  RH  041%=      5-min Rain = 0
KOD1 111725Z 24007KT 34/18 A3006 RMK A01 T03410180  RH  039%=      5-min Rain = 0
KOD1 111726Z 26006KT 34/18 A3006 RMK A01 T03400175  RH  037%=      5-min Rain = 0
KOD1 111727Z 26006KT 34/18 A3006 RMK A01 T03400184  RH  040%=      5-min Rain = 0
KOD1 111728Z 26007KT 34/18 A3006 RMK A01 T03410180  RH  038%=      5-min Rain = 0
KOD1 111729Z 25005KT 34/18 A3006 RMK A01 T03410181  RH  039%=      5-min Rain = 0
KOD1 111730Z 24005KT 34/18 A3006 RMK A01 T03410179  RH  038%=      5-min Rain = 0
KOD1 111731Z 24005KT 34/18 A3006 RMK A01 T03410179  RH  038%=      5-min Rain = 0
KOD1 111732Z 27004KT 34/18 A3006 RMK A01 T03400179  RH  039%=      5-min Rain = 0
KOD1 111733Z 26004KT 34/18 A3006 RMK A01 T03390176  RH  038%=      5-min Rain = 0
KOD1 111734Z 26004KT 34/17 A3006 RMK A01 T03390174  RH  038%=      5-min Rain = 0
KOD1 111735Z 26002KT 34/17 A3006 RMK A01 T03390171  RH  037%=      5-min Rain = 0
KOD1 111736Z 13001KT 34/17 A3006 RMK A01 T03390170  RH  037%=      5-min Rain = 0
KOD1 111737Z 15004KT 34/17 A3006 RMK A01 T03380169  RH  036%=      5-min Rain = 0
KOD1 111738Z 23003KT 34/17 A3006 RMK A01 T03380171  RH  037%=      5-min Rain = 0
KOD1 111739Z 29003KT 34/17 A3006 RMK A01 T03400172  RH  037%=      5-min Rain = 0
KOD1 111740Z 25002KT 34/17 A3006 RMK A01 T03400167  RH  036%=      5-min Rain = 0
KOD1 111741Z 07001KT 34/17 A3006 RMK A01 T03400165  RH  035%=      5-min Rain = 0
KOD1 111742Z 07001KT 34/17 A3006 RMK A01 T03400165  RH  035%=      5-min Rain = 0
KOD1 111743Z 25004KT 34/17 A3006 RMK A01 T03420173  RH  037%=      5-min Rain = 0
KOD1 111744Z 26007KT 34/17 A3005 RMK A01 T03440173  RH  036%=      5-min Rain = 0
KOD1 111745Z 25004KT 34/17 A3005 RMK A01 T03440171  RH  036%=      5-min Rain = 0
KOD1 111746Z 28003KT 34/17 A3005 RMK A01 T03440171  RH  036%=      5-min Rain = 0
KOD1 111747Z 26005KT 34/17 A3005 RMK A01 T03440170  RH  036%=      5-min Rain = 0
KOD1 111748Z 27006KT 34/17 A3005 RMK A01 T03430174  RH  037%=      5-min Rain = 0
KOD1 111749Z 28005KT 34/17 A3005 RMK A01 T03430166  RH  035%=      5-min Rain = 0
KOD1 111750Z 30004KT 34/16 A3005 RMK A01 T03430164  RH  034%=      5-min Rain = 0
KOD1 111751Z 31003KT 34/17 A3005 RMK A01 T03430167  RH  035%=      5-min Rain = 0
KOD1 111752Z 29002KT 34/17 A3005 RMK A01 T03430165  RH  035%=      5-min Rain = 0
KOD1 111753Z 24002KT 34/17 A3005 RMK A01 T03440169  RH  035%=      5-min Rain = 0
KOD1 111754Z 26007KT 34/17 A3005 RMK A01 T03440173  RH  036%=      5-min Rain = 0
KOD1 111755Z 27006KT 34/17 A3005 RMK A01 T03440174  RH  036%=      5-min Rain = 0
KOD1 111756Z 27004KT 34/17 A3005 RMK A01 T03440170  RH  036%=      5-min Rain = 0
KOD1 111757Z 29004KT 34/17 A3005 RMK A01 T03430166  RH  035%=      5-min Rain = 0
KOD1 111758Z 33003KT 34/17 A3005 RMK A01 T03420168  RH  035%=      5-min Rain = 0
KOD1 111759Z 31005KT 34/17 A3005 RMK A01 T03420169  RH  036%=      5-min Rain = 0
KOD1 111800Z 34003KT 34/18 A3005 RMK A01 T03430175  RH  037%=      5-min Rain = 0
KOD1 111801Z 35002KT 35/17 A3005 RMK A01 T03450172  RH  036%=      5-min Rain = 0
KOD1 111802Z 33002KT 35/17 A3005 RMK A01 T03470170  RH  035%=      5-min Rain = 0
KOD1 111803Z 36002KT 35/17 A3005 RMK A01 T03490168  RH  034%=      5-min Rain = 0
KOD1 111804Z 00002KT 35/17 A3005 RMK A01 T03480165  RH  034%=      5-min Rain = 0
KOD1 111805Z 35001KT 35/17 A3005 RMK A01 T03470167  RH  034%=      5-min Rain = 0
KOD1 111806Z 35002KT 35/17 A3005 RMK A01 T03460166  RH  034%=      5-min Rain = 0
KOD1 111807Z 36002KT 35/17 A3005 RMK A01 T03460165  RH  034%=      5-min Rain = 0
KOD1 111808Z 35003KT 35/17 A3005 RMK A01 T03460167  RH  035%=      5-min Rain = 0
KOD1 111809Z 01003KT 35/17 A3004 RMK A01 T03460165  RH  034%=      5-min Rain = 0
KOD1 111810Z 01003KT 35/17 A3004 RMK A01 T03450165  RH  034%=      5-min Rain = 0
KOD1 111811Z 03002KT 35/16 A3004 RMK A01 T03450164  RH  034%=      5-min Rain = 0
KOD1 111812Z 03001KT 35/17 A3004 RMK A01 T03450168  RH  035%=      5-min Rain = 0
KOD1 111813Z 00000KT 35/17 A3004 RMK A01 T03470171  RH  035%=      5-min Rain = 0
KOD1 111814Z 20001KT 35/17 A3004 RMK A01 T03490173  RH  035%=      5-min Rain = 0
KOD1 111815Z 25002KT 35/17 A3004 RMK A01 T03510173  RH  035%=      5-min Rain = 0
KOD1 111816Z 13003KT 35/17 A3004 RMK A01 T03530173  RH  034%=      5-min Rain = 0
KOD1 111817Z 20005KT 35/17 A3004 RMK A01 T03540171  RH  034%=      5-min Rain = 0
KOD1 111818Z 20005KT 35/17 A3004 RMK A01 T03540174  RH  035%=      5-min Rain = 0
KOD1 111819Z 21005KT 35/17 A3004 RMK A01 T03530172  RH  034%=      5-min Rain = 0
KOD1 111820Z 23007KT 35/18 A3004 RMK A01 T03520175  RH  035%=      5-min Rain = 0
KOD1 111821Z 23008KT 35/17 A3004 RMK A01 T03530167  RH  033%=      5-min Rain = 0
KOD1 111822Z 22007KT 35/17 A3004 RMK A01 T03510166  RH  033%=      5-min Rain = 0
KOD1 111823Z 25006KT 35/16 A3004 RMK A01 T03500162  RH  033%=      5-min Rain = 0
KOD1 111824Z 25005KT 35/16 A3004 RMK A01 T03490162  RH  033%=      5-min Rain = 0
KOD1 111825Z 23005KT 35/16 A3004 RMK A01 T03490161  RH  033%=      5-min Rain = 0
KOD1 111826Z 21003KT 35/16 A3004 RMK A01 T03470160  RH  033%=      5-min Rain = 0
KOD1 111827Z 28007KT 35/16 A3004 RMK A01 T03470161  RH  033%=      5-min Rain = 0
KOD1 111828Z 30007KT 35/16 A3004 RMK A01 T03480164  RH  034%=      5-min Rain = 0
KOD1 111829Z 29005KT 35/16 A3004 RMK A01 T03480164  RH  033%=      5-min Rain = 0
KOD1 111830Z 29003KT 35/16 A3004 RMK A01 T03480162  RH  033%=      5-min Rain = 0
KOD1 111831Z 27002KT 35/17 A3004 RMK A01 T03490165  RH  033%=      5-min Rain = 0
KOD1 111832Z 26004KT 35/16 A3004 RMK A01 T03510163  RH  033%=      5-min Rain = 0
KOD1 111833Z 21003KT 35/17 A3004 RMK A01 T03520166  RH  033%=      5-min Rain = 0
KOD1 111834Z 19002KT 35/16 A3004 RMK A01 T03530159  RH  032%=      5-min Rain = 0
KOD1 111835Z 17004KT 35/17 A3004 RMK A01 T03540166  RH  033%=      5-min Rain = 0
KOD1 111836Z 15006KT 35/16 A3004 RMK A01 T03540162  RH  032%=      5-min Rain = 0
KOD1 111837Z 12005KT 35/16 A3004 RMK A01 T03530162  RH  032%=      5-min Rain = 0
KOD1 111838Z 13005KT 35/16 A3004 RMK A01 T03530162  RH  032%=      5-min Rain = 0
KOD1 111839Z 13006KT 35/16 A3004 RMK A01 T03530163  RH  032%=      5-min Rain = 0
KOD1 111840Z 14008KT 35/16 A3004 RMK A01 T03540160  RH  032%=      5-min Rain = 0
KOD1 111841Z 14007KT 35/16 A3004 RMK A01 T03520159  RH  032%=      5-min Rain = 0
KOD1 111842Z 14005KT 35/15 A3004 RMK A01 T03510154  RH  031%=      5-min Rain = 0
KOD1 111843Z 13005KT 35/16 A3004 RMK A01 T03510158  RH  032%=      5-min Rain = 0
KOD1 111844Z 11005KT 35/15 A3004 RMK A01 T03500154  RH  031%=      5-min Rain = 0
KOD1 111845Z 13004KT 35/16 A3004 RMK A01 T03510158  RH  032%=      5-min Rain = 0
KOD1 111846Z 15004KT 35/16 A3004 RMK A01 T03520155  RH  031%=      5-min Rain = 0
KOD1 111847Z 16005KT 35/15 A3004 RMK A01 T03530154  RH  031%=      5-min Rain = 0
KOD1 111848Z 17007KT 35/16 A3004 RMK A01 T03540158  RH  031%=      5-min Rain = 0
KOD1 111849Z 17004KT 36/15 A3004 RMK A01 T03550150  RH  030%=      5-min Rain = 0
KOD1 111850Z 16004KT 36/16 A3003 RMK A01 T03560157  RH  031%=      5-min Rain = 0
KOD1 111851Z 16007KT 36/15 A3003 RMK A01 T03590154  RH  030%=      5-min Rain = 0
KOD1 111852Z 16006KT 36/15 A3003 RMK A01 T03610150  RH  029%=      5-min Rain = 0
KOD1 111853Z 18010KT 36/15 A3003 RMK A01 T03600151  RH  029%=      5-min Rain = 0
KOD1 111854Z 19010KT 36/15 A3003 RMK A01 T03600153  RH  029%=      5-min Rain = 0
KOD1 111855Z 21007KT 36/15 A3003 RMK A01 T03580145  RH  028%=      5-min Rain = 0
KOD1 111856Z 22006KT 36/16 A3003 RMK A01 T03590156  RH  030%=      5-min Rain = 0
KOD1 111857Z 20007KT 36/15 A3003 RMK A01 T03600146  RH  028%=      5-min Rain = 0
KOD1 111858Z 18007KT 36/15 A3003 RMK A01 T03590146  RH  028%=      5-min Rain = 0
KOD1 111859Z 17005KT 36/14 A3003 RMK A01 T03570135  RH  026%=      5-min Rain = 0
KOD1 111900Z 16003KT 36/14 A3003 RMK A01 T03570138  RH  027%=      5-min Rain = 0
KOD1 111901Z 17003KT 36/14 A3003 RMK A01 T03570137  RH  027%=      5-min Rain = 0
KOD1 111902Z 16004KT 36/14 A3003 RMK A01 T03570141  RH  027%=      5-min Rain = 0
KOD1 111903Z 18005KT 36/14 A3003 RMK A01 T03570142  RH  028%=      5-min Rain = 0
KOD1 111904Z 20005KT 36/14 A3003 RMK A01 T03570144  RH  028%=      5-min Rain = 0
KOD1 111905Z 18004KT 36/15 A3003 RMK A01 T03570149  RH  029%=      5-min Rain = 0
KOD1 111906Z 15002KT 36/14 A3003 RMK A01 T03570143  RH  028%=      5-min Rain = 0
KOD1 111907Z 27001KT 36/14 A3003 RMK A01 T03580144  RH  028%=      5-min Rain = 0
KOD1 111908Z 27003KT 36/15 A3003 RMK A01 T03600149  RH  028%=      5-min Rain = 0
KOD1 111909Z 25004KT 36/15 A3003 RMK A01 T03620146  RH  028%=      5-min Rain = 0
KOD1 111910Z 26003KT 36/14 A3003 RMK A01 T03610142  RH  027%=      5-min Rain = 0
KOD1 111911Z 21002KT 36/15 A3003 RMK A01 T03610145  RH  028%=      5-min Rain = 0
KOD1 111912Z 20002KT 36/14 A3003 RMK A01 T03600142  RH  027%=      5-min Rain = 0
KOD1 111913Z 12003KT 36/14 A3003 RMK A01 T03590144  RH  028%=      5-min Rain = 0
KOD1 111914Z 12006KT 36/15 A3003 RMK A01 T03590153  RH  029%=      5-min Rain = 0
KOD1 111915Z 13007KT 36/15 A3003 RMK A01 T03580151  RH  029%=      5-min Rain = 0
KOD1 111916Z 13008KT 36/15 A3003 RMK A01 T03580152  RH  029%=      5-min Rain = 0
KOD1 111917Z 13008KT 36/15 A3003 RMK A01 T03580151  RH  029%=      5-min Rain = 0
KOD1 111918Z 14006KT 36/15 A3003 RMK A01 T03570152  RH  029%=      5-min Rain = 0
KOD1 111919Z 19003KT 36/15 A3002 RMK A01 T03570152  RH  030%=      5-min Rain = 0
KOD1 111920Z 07001KT 36/15 A3002 RMK A01 T03560153  RH  030%=      5-min Rain = 0
KOD1 111921Z 12005KT 36/15 A3002 RMK A01 T03560154  RH  030%=      5-min Rain = 0
KOD1 111922Z 11006KT 36/16 A3002 RMK A01 T03600160  RH  031%=      5-min Rain = 0
KOD1 111923Z 13007KT 36/16 A3002 RMK A01 T03620156  RH  029%=      5-min Rain = 0
KOD1 111924Z 15007KT 36/16 A3002 RMK A01 T03620155  RH  029%=      5-min Rain = 0
KOD1 111925Z 20006KT 36/15 A3002 RMK A01 T03620152  RH  029%=      5-min Rain = 0
KOD1 111926Z 20005KT 36/16 A3002 RMK A01 T03620158  RH  030%=      5-min Rain = 0
KOD1 111927Z 21005KT 36/16 A3002 RMK A01 T03610156  RH  030%=      5-min Rain = 0
KOD1 111928Z 17006G11KT 36/15 A3002 RMK A01 T03610154  RH  029%=      5-min Rain = 0
KOD1 111929Z 19009KT 36/15 A3002 RMK A01 T03600154  RH  029%=      5-min Rain = 0
KOD1 111930Z 20008KT 36/15 A3002 RMK A01 T03600154  RH  029%=      5-min Rain = 0
KOD1 111931Z 19006KT 36/15 A3002 RMK A01 T03600152  RH  029%=      5-min Rain = 0
KOD1 111932Z 19006KT 36/16 A3002 RMK A01 T03590158  RH  030%=      5-min Rain = 0
KOD1 111933Z 22008KT 36/15 A3002 RMK A01 T03600154  RH  029%=      5-min Rain = 0
KOD1 111934Z 23007KT 36/15 A3002 RMK A01 T03610152  RH  029%=      5-min Rain = 0
KOD1 111935Z 28005KT 36/15 A3002 RMK A01 T03610148  RH  028%=      5-min Rain = 0
KOD1 111936Z 25005KT 36/15 A3002 RMK A01 T03610150  RH  028%=      5-min Rain = 0
KOD1 111937Z 24006KT 36/15 A3002 RMK A01 T03610149  RH  028%=      5-min Rain = 0
KOD1 111938Z 23005KT 36/15 A3002 RMK A01 T03620153  RH  029%=      5-min Rain = 0
KOD1 111939Z 22005KT 36/15 A3001 RMK A01 T03620153  RH  029%=      5-min Rain = 0
KOD1 111940Z 23005KT 36/15 A3001 RMK A01 T03610153  RH  029%=      5-min Rain = 0
KOD1 111941Z 28003KT 36/16 A3001 RMK A01 T03620158  RH  030%=      5-min Rain = 0
KOD1 111942Z 10006KT 36/15 A3001 RMK A01 T03610153  RH  029%=      5-min Rain = 0
KOD1 111943Z 10005KT 36/15 A3001 RMK A01 T03600152  RH  029%=      5-min Rain = 0
KOD1 111944Z 07003KT 36/16 A3001 RMK A01 T03590156  RH  030%=      5-min Rain = 0
KOD1 111945Z 14005KT 36/16 A3001 RMK A01 T03610160  RH  030%=      5-min Rain = 0
KOD1 111946Z 16009KT 36/15 A3001 RMK A01 T03630154  RH  029%=      5-min Rain = 0
KOD1 111947Z 16009KT 36/15 A3001 RMK A01 T03630150  RH  028%=      5-min Rain = 0
KOD1 111948Z 15009KT 36/15 A3001 RMK A01 T03620148  RH  028%=      5-min Rain = 0
KOD1 111949Z 13005KT 36/14 A3001 RMK A01 T03620144  RH  027%=      5-min Rain = 0
KOD1 111950Z 15006KT 36/15 A3001 RMK A01 T03620147  RH  028%=      5-min Rain = 0
KOD1 111951Z 15006KT 36/15 A3001 RMK A01 T03630153  RH  029%=      5-min Rain = 0
KOD1 111952Z 15007KT 37/15 A3001 RMK A01 T03650154  RH  029%=      5-min Rain = 0
KOD1 111953Z 18005KT 37/15 A3001 RMK A01 T03650148  RH  028%=      5-min Rain = 0
KOD1 111954Z 18002KT 36/15 A3001 RMK A01 T03640146  RH  027%=      5-min Rain = 0
KOD1 111955Z 13004G9KT 36/15 A3001 RMK A01 T03640148  RH  028%=      5-min Rain = 0
KOD1 111956Z 12008KT 37/15 A3001 RMK A01 T03650148  RH  028%=      5-min Rain = 0
KOD1 111957Z 13006KT 36/15 A3001 RMK A01 T03640149  RH  028%=      5-min Rain = 0
KOD1 111958Z 13004KT 36/15 A3001 RMK A01 T03620152  RH  029%=      5-min Rain = 0
KOD1 111959Z 12007KT 36/15 A3001 RMK A01 T03630152  RH  029%=      5-min Rain = 0
KOD1 112000Z 13012KT 36/15 A3001 RMK A01 T03630154  RH  029%=      5-min Rain = 0
KOD1 112001Z 15012KT 36/16 A3001 RMK A01 T03640156  RH  029%=      5-min Rain = 0
KOD1 112002Z 16008KT 36/16 A3001 RMK A01 T03630159  RH  030%=      5-min Rain = 0
KOD1 112003Z 17009KT 36/15 A3001 RMK A01 T03610152  RH  029%=      5-min Rain = 0
KOD1 112004Z 17008KT 36/16 A3001 RMK A01 T03590156  RH  030%=      5-min Rain = 0
KOD1 112005Z 16006KT 36/15 A3001 RMK A01 T03590152  RH  029%=      5-min Rain = 0
KOD1 112006Z 18002KT 36/15 A30 RMK A01 T03580151  RH  029%=      5-min Rain = 0
KOD1 112007Z 18006KT 36/16 A30 RMK A01 T03590157  RH  030%=      5-min Rain = 0
KOD1 112008Z 16005KT 36/15 A30 RMK A01 T03590154  RH  030%=      5-min Rain = 0
KOD1 112009Z 12006KT 36/16 A30 RMK A01 T03600155  RH  030%=      5-min Rain = 0
KOD1 112010Z 14007KT 36/16 A30 RMK A01 T03630156  RH  029%=      5-min Rain = 0
KOD1 112011Z 15008KT 36/15 A30 RMK A01 T03640153  RH  029%=      5-min Rain = 0
KOD1 112012Z 14007KT 36/15 A30 RMK A01 T03630152  RH  029%=      5-min Rain = 0
KOD1 112013Z 16004KT 36/16 A30 RMK A01 T03620155  RH  029%=      5-min Rain = 0
KOD1 112014Z 15010KT 36/16 A30 RMK A01 T03630156  RH  029%=      5-min Rain = 0
KOD1 112015Z 17008KT 36/16 A30 RMK A01 T03630155  RH  029%=      5-min Rain = 0
KOD1 112016Z 16010KT 36/16 A30 RMK A01 T03630159  RH  030%=      5-min Rain = 0
KOD1 112017Z 14007KT 36/15 A30 RMK A01 T03640154  RH  029%=      5-min Rain = 0
KOD1 112018Z 11004KT 36/15 A30 RMK A01 T03630152  RH  029%=      5-min Rain = 0
KOD1 112019Z 12005KT 36/15 A30 RMK A01 T03630151  RH  028%=      5-min Rain = 0
KOD1 112020Z 10004KT 36/15 A30 RMK A01 T03630153  RH  029%=      5-min Rain = 0
KOD1 112021Z 12003KT 36/15 A30 RMK A01 T03640152  RH  028%=      5-min Rain = 0
KOD1 112022Z 06004KT 37/16 A30 RMK A01 T03650155  RH  029%=      5-min Rain = 0
KOD1 112023Z 11002KT 37/15 A30 RMK A01 T03670154  RH  028%=      5-min Rain = 0
KOD1 112024Z 17005KT 37/16 A30 RMK A01 T03670158  RH  029%=      5-min Rain = 0
KOD1 112025Z 16004KT 37/15 A30 RMK A01 T03660153  RH  028%=      5-min Rain = 0
KOD1 112026Z 17003KT 36/15 A30 RMK A01 T03640150  RH  028%=      5-min Rain = 0
KOD1 112027Z 16002KT 36/15 A30 RMK A01 T03640154  RH  029%=      5-min Rain = 0
KOD1 112028Z 10002KT 37/16 A30 RMK A01 T03650156  RH  029%=      5-min Rain = 0
KOD1 112029Z 09005KT 37/15 A30 RMK A01 T03650153  RH  028%=      5-min Rain = 0
KOD1 112030Z 10006KT 36/16 A30 RMK A01 T03640157  RH  029%=      5-min Rain = 0
KOD1 112031Z 09006KT 37/15 A30 RMK A01 T03650153  RH  028%=      5-min Rain = 0
KOD1 112032Z 12005KT 36/15 A30 RMK A01 T03630151  RH  028%=      5-min Rain = 0
KOD1 112033Z 12005KT 36/15 A30 RMK A01 T03630152  RH  029%=      5-min Rain = 0
KOD1 112034Z 13004KT 36/15 A30 RMK A01 T03620150  RH  028%=      5-min Rain = 0
KOD1 112035Z 14005KT 36/15 A30 RMK A01 T03620151  RH  029%=      5-min Rain = 0
KOD1 112036Z 15006KT 36/15 A30 RMK A01 T03630151  RH  028%=      5-min Rain = 0
KOD1 112037Z 19007KT 36/16 A2999 RMK A01 T03640155  RH  029%=      5-min Rain = 0
KOD1 112038Z 21004KT 36/14 A30 RMK A01 T03630144  RH  027%=      5-min Rain = 0
KOD1 112039Z 31003KT 36/15 A2999 RMK A01 T03620145  RH  028%=      5-min Rain = 0
KOD1 112040Z 34003KT 36/15 A2999 RMK A01 T03620146  RH  028%=      5-min Rain = 0
KOD1 112041Z 35003KT 36/15 A2999 RMK A01 T03620146  RH  028%=      5-min Rain = 0
KOD1 112042Z 33002KT 36/15 A2999 RMK A01 T03620146  RH  028%=      5-min Rain = 0
KOD1 112043Z 32002KT 36/15 A2999 RMK A01 T03620146  RH  028%=      5-min Rain = 0
KOD1 112044Z 24006KT 36/15 A2999 RMK A01 T03630150  RH  028%=      5-min Rain = 0
KOD1 112045Z 18005KT 37/15 A2999 RMK A01 T03650152  RH  028%=      5-min Rain = 0
KOD1 112046Z 18006KT 37/15 A2999 RMK A01 T03650147  RH  027%=      5-min Rain = 0
KOD1 112047Z 17004KT 36/15 A2999 RMK A01 T03630145  RH  027%=      5-min Rain = 0
KOD1 112048Z 18004KT 36/15 A2999 RMK A01 T03630147  RH  028%=      5-min Rain = 0
KOD1 112049Z 20005KT 36/15 A2999 RMK A01 T03640147  RH  028%=      5-min Rain = 0
KOD1 112050Z 19006KT 36/15 A2999 RMK A01 T03640151  RH  028%=      5-min Rain = 0
KOD1 112051Z 21006KT 36/15 A2999 RMK A01 T03640146  RH  027%=      5-min Rain = 0
KOD1 112052Z 23004KT 36/15 A2999 RMK A01 T03640147  RH  028%=      5-min Rain = 0
KOD1 112053Z 24003KT 36/14 A2999 RMK A01 T03640144  RH  027%=      5-min Rain = 0
KOD1 112054Z 23003KT 36/15 A2998 RMK A01 T03640148  RH  028%=      5-min Rain = 0
KOD1 112055Z 25004KT 37/15 A2998 RMK A01 T03650147  RH  027%=      5-min Rain = 0
KOD1 112056Z 09008KT 37/15 A2998 RMK A01 T03660152  RH  028%=      5-min Rain = 0
KOD1 112057Z 11009KT 37/15 A2998 RMK A01 T03700150  RH  027%=      5-min Rain = 0
KOD1 112058Z 12011KT 37/15 A2998 RMK A01 T03710146  RH  026%=      5-min Rain = 0
KOD1 112059Z 09008KT 37/14 A2998 RMK A01 T03700144  RH  026%=      5-min Rain = 0
KOD1 112100Z 08007KT 37/15 A2998 RMK A01 T03680145  RH  027%=      5-min Rain = 0
KOD1 112101Z 11004KT 37/14 A2998 RMK A01 T03660140  RH  026%=      5-min Rain = 0
KOD1 112102Z 11006KT 37/15 A2998 RMK A01 T03660147  RH  027%=      5-min Rain = 0
KOD1 112103Z 13007KT 37/15 A2998 RMK A01 T03680145  RH  027%=      5-min Rain = 0
KOD1 112104Z 11005KT 37/15 A2998 RMK A01 T03670145  RH  027%=      5-min Rain = 0
KOD1 112105Z 14003KT 37/14 A2998 RMK A01 T03680142  RH  026%=      5-min Rain = 0
KOD1 112106Z 15002KT 37/14 A2998 RMK A01 T03670141  RH  026%=      5-min Rain = 0
KOD1 112107Z 11002KT 37/15 A2998 RMK A01 T03670148  RH  027%=      5-min Rain = 0
KOD1 112108Z 11002KT 37/15 A2998 RMK A01 T03690150  RH  027%=      5-min Rain = 0
KOD1 112109Z 16007KT 37/15 A2998 RMK A01 T03710149  RH  027%=      5-min Rain = 0
KOD1 112110Z 17008KT 37/15 A2998 RMK A01 T03710152  RH  027%=      5-min Rain = 0
KOD1 112111Z 17008KT 37/15 A2998 RMK A01 T03710152  RH  027%=      5-min Rain = 0
KOD1 112112Z 16008KT 37/15 A2998 RMK A01 T03680146  RH  027%=      5-min Rain = 0
KOD1 112113Z 14006KT 37/14 A2998 RMK A01 T03650140  RH  026%=      5-min Rain = 0
KOD1 112114Z 16002KT 36/14 A2998 RMK A01 T03630139  RH  026%=      5-min Rain = 0
KOD1 112115Z 15004KT 36/14 A2998 RMK A01 T03620143  RH  027%=      5-min Rain = 0
KOD1 112116Z 16007KT 36/14 A2998 RMK A01 T03610144  RH  027%=      5-min Rain = 0
KOD1 112117Z 19008KT 36/15 A2998 RMK A01 T03600148  RH  028%=      5-min Rain = 0
KOD1 112118Z 18008KT 36/15 A2998 RMK A01 T03590151  RH  029%=      5-min Rain = 0
KOD1 112119Z 18007KT 36/15 A2998 RMK A01 T03610151  RH  029%=      5-min Rain = 0
KOD1 112120Z 18007KT 36/15 A2998 RMK A01 T03630149  RH  028%=      5-min Rain = 0
KOD1 112121Z 18005KT 36/15 A2998 RMK A01 T03640145  RH  027%=      5-min Rain = 0
KOD1 112122Z 14004KT 37/15 A2997 RMK A01 T03650146  RH  027%=      5-min Rain = 0
KOD1 112123Z 09004KT 36/14 A2997 RMK A01 T03640138  RH  026%=      5-min Rain = 0
KOD1 112124Z 08005KT 36/14 A2997 RMK A01 T03630139  RH  026%=      5-min Rain = 0
KOD1 112125Z 12004KT 36/14 A2997 RMK A01 T03630139  RH  026%=      5-min Rain = 0
KOD1 112126Z 15001KT 36/14 A2997 RMK A01 T03630141  RH  027%=      5-min Rain = 0
KOD1 112127Z 10005KT 37/15 A2997 RMK A01 T03650146  RH  027%=      5-min Rain = 0
KOD1 112128Z 12005KT 37/14 A2997 RMK A01 T03670143  RH  026%=      5-min Rain = 0
KOD1 112129Z 13004KT 37/14 A2997 RMK A01 T03670143  RH  026%=      5-min Rain = 0
KOD1 112130Z 17003KT 37/15 A2997 RMK A01 T03680147  RH  027%=      5-min Rain = 0
KOD1 112131Z 10008KT 37/15 A2997 RMK A01 T03690145  RH  026%=      5-min Rain = 0
KOD1 112132Z 10006KT 37/14 A2997 RMK A01 T03700143  RH  026%=      5-min Rain = 0
KOD1 112133Z 11005KT 37/15 A2997 RMK A01 T03700145  RH  026%=      5-min Rain = 0
KOD1 112134Z 12003KT 37/15 A2997 RMK A01 T03710147  RH  026%=      5-min Rain = 0
KOD1 112135Z 15005KT 37/15 A2997 RMK A01 T03720147  RH  026%=      5-min Rain = 0
KOD1 112136Z 14007KT 37/14 A2997 RMK A01 T03730144  RH  026%=      5-min Rain = 0
KOD1 112137Z 18007KT 37/15 A2996 RMK A01 T03730150  RH  027%=      5-min Rain = 0
KOD1 112138Z 18009KT 37/15 A2996 RMK A01 T03720151  RH  027%=      5-min Rain = 0
KOD1 112139Z 18011KT 37/15 A2996 RMK A01 T03720151  RH  027%=      5-min Rain = 0
KOD1 112140Z 18009KT 37/15 A2996 RMK A01 T03700146  RH  026%=      5-min Rain = 0
KOD1 112141Z 15011KT 37/15 A2996 RMK A01 T03690151  RH  027%=      5-min Rain = 0
KOD1 112142Z 12012KT 37/14 A2996 RMK A01 T03700140  RH  026%=      5-min Rain = 0
KOD1 112143Z 15008KT 37/14 A2996 RMK A01 T03690144  RH  026%=      5-min Rain = 0
KOD1 112144Z 14006KT 37/14 A2996 RMK A01 T03700141  RH  026%=      5-min Rain = 0
KOD1 112145Z 15007G12KT 37/15 A2996 RMK A01 T03710145  RH  026%=      5-min Rain = 0
KOD1 112146Z 17012KT 37/14 A2996 RMK A01 T03710144  RH  026%=      5-min Rain = 0
KOD1 112147Z 16007KT 37/14 A2996 RMK A01 T03690144  RH  026%=      5-min Rain = 0
KOD1 112148Z 15004KT 37/15 A2996 RMK A01 T03690149  RH  027%=      5-min Rain = 0
KOD1 112149Z 17007KT 37/15 A2996 RMK A01 T03700148  RH  027%=      5-min Rain = 0
KOD1 112150Z 18008KT 37/14 A2996 RMK A01 T03700143  RH  026%=      5-min Rain = 0
KOD1 112151Z 18004KT 37/14 A2996 RMK A01 T03680141  RH  026%=      5-min Rain = 0
KOD1 112152Z 18003KT 37/15 A2996 RMK A01 T03670146  RH  027%=      5-min Rain = 0
KOD1 112153Z 17005KT 37/14 A2996 RMK A01 T03680138  RH  025%=      5-min Rain = 0
KOD1 112154Z 08002KT 37/14 A2996 RMK A01 T03670136  RH  025%=      5-min Rain = 0
KOD1 112155Z 21004KT 37/14 A2996 RMK A01 T03670142  RH  026%=      5-min Rain = 0
KOD1 112156Z 24003KT 37/14 A2995 RMK A01 T03680138  RH  025%=      5-min Rain = 0
KOD1 112157Z 21003KT 37/15 A2995 RMK A01 T03690145  RH  026%=      5-min Rain = 0
KOD1 112158Z 15004KT 37/15 A2995 RMK A01 T03710148  RH  027%=      5-min Rain = 0
KOD1 112159Z 16006KT 37/14 A2995 RMK A01 T03710142  RH  026%=      5-min Rain = 0
KOD1 112200Z 13008KT 37/15 A2995 RMK A01 T03730151  RH  027%=      5-min Rain = 0
KOD1 112201Z 12011KT 38/15 A2996 RMK A01 T03750145  RH  026%=      5-min Rain = 0
KOD1 112202Z 12010KT 38/14 A2996 RMK A01 T03750141  RH  025%=      5-min Rain = 0
KOD1 112203Z 14008KT 37/14 A2995 RMK A01 T03730143  RH  025%=      5-min Rain = 0
KOD1 112204Z 12007KT 37/14 A2996 RMK A01 T03730144  RH  026%=      5-min Rain = 0
KOD1 112205Z 14008KT 37/14 A2995 RMK A01 T03720142  RH  025%=      5-min Rain = 0
KOD1 112206Z 12005KT 37/14 A2995 RMK A01 T03720143  RH  026%=      5-min Rain = 0
KOD1 112207Z 12007KT 37/14 A2995 RMK A01 T03720139  RH  025%=      5-min Rain = 0
KOD1 112208Z 13005KT 37/14 A2995 RMK A01 T03700140  RH  025%=      5-min Rain = 0
KOD1 112209Z 16007KT 37/14 A2995 RMK A01 T03700142  RH  026%=      5-min Rain = 0
KOD1 112210Z 16007KT 37/14 A2995 RMK A01 T03700144  RH  026%=      5-min Rain = 0
KOD1 112211Z 18009KT 37/15 A2995 RMK A01 T03710146  RH  026%=      5-min Rain = 0
KOD1 112212Z 20008KT 37/14 A2995 RMK A01 T03700141  RH  026%=      5-min Rain = 0
KOD1 112213Z 19006KT 37/14 A2995 RMK A01 T03700144  RH  026%=      5-min Rain = 0
KOD1 112214Z 19007KT 37/14 A2995 RMK A01 T03690142  RH  026%=      5-min Rain = 0
KOD1 112215Z 19006KT 37/15 A2995 RMK A01 T03690145  RH  026%=      5-min Rain = 0
KOD1 112216Z 18007KT 37/15 A2995 RMK A01 T03700150  RH  027%=      5-min Rain = 0
KOD1 112217Z 16008KT 37/15 A2995 RMK A01 T03710147  RH  026%=      5-min Rain = 0
KOD1 112218Z 15007KT 37/14 A2995 RMK A01 T03710138  RH  025%=      5-min Rain = 0
KOD1 112219Z 14005KT 37/14 A2995 RMK A01 T03710137  RH  025%=      5-min Rain = 0
KOD1 112220Z 17004KT 37/14 A2995 RMK A01 T03710139  RH  025%=      5-min Rain = 0
KOD1 112221Z 17004KT 37/14 A2995 RMK A01 T03710138  RH  025%=      5-min Rain = 0
KOD1 112222Z 18005KT 37/14 A2995 RMK A01 T03710140  RH  025%=      5-min Rain = 0
KOD1 112223Z 20005KT 37/14 A2995 RMK A01 T03700140  RH  026%=      5-min Rain = 0
KOD1 112224Z 20006KT 37/14 A2995 RMK A01 T03700141  RH  026%=      5-min Rain = 0
KOD1 112225Z 20005KT 37/14 A2995 RMK A01 T03690136  RH  025%=      5-min Rain = 0
KOD1 112226Z 20005KT 37/14 A2995 RMK A01 T03690138  RH  025%=      5-min Rain = 0
KOD1 112227Z 15005KT 37/14 A2995 RMK A01 T03690142  RH  026%=      5-min Rain = 0
KOD1 112228Z 13005KT 37/14 A2995 RMK A01 T03690140  RH  025%=      5-min Rain = 0
KOD1 112229Z 14005KT 37/14 A2995 RMK A01 T03710142  RH  026%=      5-min Rain = 0
KOD1 112230Z 14006KT 37/14 A2995 RMK A01 T03710142  RH  026%=      5-min Rain = 0
KOD1 112231Z 13011KT 37/14 A2995 RMK A01 T03730143  RH  026%=      5-min Rain = 0
KOD1 112232Z 11009KT 37/15 A2995 RMK A01 T03720145  RH  026%=      5-min Rain = 0
KOD1 112233Z 12004KT 37/14 A2995 RMK A01 T03700144  RH  026%=      5-min Rain = 0
KOD1 112234Z 14002KT 37/15 A2995 RMK A01 T03690146  RH  027%=      5-min Rain = 0
KOD1 112235Z 11003KT 37/15 A2994 RMK A01 T03700149  RH  027%=      5-min Rain = 0
KOD1 112236Z 15004KT 37/15 A2994 RMK A01 T03710148  RH  027%=      5-min Rain = 0
KOD1 112237Z 19005KT 37/15 A2994 RMK A01 T03720150  RH  027%=      5-min Rain = 0
KOD1 112238Z 18006KT 37/16 A2994 RMK A01 T03720157  RH  028%=      5-min Rain = 0
KOD1 112239Z 16005KT 37/15 A2994 RMK A01 T03720147  RH  026%=      5-min Rain = 0
KOD1 112240Z 17008KT 37/15 A2994 RMK A01 T03720151  RH  027%=      5-min Rain = 0
KOD1 112241Z 18009KT 37/15 A2994 RMK A01 T03720146  RH  026%=      5-min Rain = 0
KOD1 112242Z 19007KT 37/14 A2994 RMK A01 T03710143  RH  026%=      5-min Rain = 0
KOD1 112243Z 17006KT 37/14 A2994 RMK A01 T03700142  RH  026%=      5-min Rain = 0
KOD1 112244Z 17007KT 37/15 A2994 RMK A01 T03700147  RH  027%=      5-min Rain = 0
KOD1 112245Z 17010KT 37/15 A2994 RMK A01 T03710145  RH  026%=      5-min Rain = 0
KOD1 112246Z 17009KT 37/15 A2994 RMK A01 T03710145  RH  026%=      5-min Rain = 0
KOD1 112247Z 17008KT 37/14 A2994 RMK A01 T03700143  RH  026%=      5-min Rain = 0
KOD1 112248Z 17005KT 37/15 A2994 RMK A01 T03700145  RH  026%=      5-min Rain = 0
KOD1 112249Z 18006KT 37/15 A2994 RMK A01 T03710145  RH  026%=      5-min Rain = 0
KOD1 112250Z 19005KT 37/15 A2994 RMK A01 T03710148  RH  027%=      5-min Rain = 0
KOD1 112251Z 17004KT 37/15 A2994 RMK A01 T03710147  RH  027%=      5-min Rain = 0
KOD1 112252Z 15009KT 37/14 A2994 RMK A01 T03720143  RH  026%=      5-min Rain = 0
KOD1 112253Z 15010KT 37/14 A2994 RMK A01 T03720139  RH  025%=      5-min Rain = 0
KOD1 112254Z 15009KT 37/14 A2994 RMK A01 T03720141  RH  025%=      5-min Rain = 0
KOD1 112255Z 13007KT 37/14 A2994 RMK A01 T03720140  RH  025%=      5-min Rain = 0
KOD1 112256Z 13006KT 37/14 A2994 RMK A01 T03710141  RH  025%=      5-min Rain = 0
KOD1 112257Z 14008KT 37/14 A2994 RMK A01 T03720142  RH  026%=      5-min Rain = 0
KOD1 112258Z 13007KT 37/14 A2994 RMK A01 T03710138  RH  025%=      5-min Rain = 0
KOD1 112259Z 14007KT 37/14 A2994 RMK A01 T03710143  RH  026%=      5-min Rain = 0
KOD1 112300Z 14009KT 37/14 A2994 RMK A01 T03730143  RH  026%=      5-min Rain = 0
KOD1 112301Z 12012KT 37/14 A2994 RMK A01 T03730138  RH  025%=      5-min Rain = 0
KOD1 112302Z 12011KT 37/14 A2994 RMK A01 T03730135  RH  024%=      5-min Rain = 0
KOD1 112303Z 12008KT 37/14 A2994 RMK A01 T03710137  RH  025%=      5-min Rain = 0
KOD1 112304Z 12006KT 37/14 A2994 RMK A01 T03710140  RH  025%=      5-min Rain = 0
KOD1 112305Z 12006KT 37/14 A2994 RMK A01 T03710140  RH  025%=      5-min Rain = 0
KOD1 112306Z 12006KT 37/14 A2994 RMK A01 T03710139  RH  025%=      5-min Rain = 0
KOD1 112307Z 14010KT 37/14 A2994 RMK A01 T03720141  RH  025%=      5-min Rain = 0
KOD1 112308Z 12009KT 37/14 A2994 RMK A01 T03720141  RH  025%=      5-min Rain = 0
KOD1 112309Z 11008KT 37/14 A2994 RMK A01 T03720137  RH  025%=      5-min Rain = 0
KOD1 112310Z 12008KT 37/14 A2994 RMK A01 T03720139  RH  025%=      5-min Rain = 0
KOD1 112311Z 11010KT 37/14 A2994 RMK A01 T03720139  RH  025%=      5-min Rain = 0
KOD1 112312Z 12010KT 37/14 A2994 RMK A01 T03720138  RH  025%=      5-min Rain = 0
KOD1 112313Z 12009KT 37/14 A2994 RMK A01 T03720137  RH  025%=      5-min Rain = 0
KOD1 112314Z 12010KT 37/14 A2994 RMK A01 T03710138  RH  025%=      5-min Rain = 0
KOD1 112315Z 11008KT 37/14 A2993 RMK A01 T03710137  RH  025%=      5-min Rain = 0
KOD1 112316Z 11008KT 37/14 A2993 RMK A01 T03700136  RH  025%=      5-min Rain = 0
KOD1 112317Z 11007KT 37/14 A2993 RMK A01 T03690136  RH  025%=      5-min Rain = 0
KOD1 112318Z 10006KT 37/14 A2993 RMK A01 T03690137  RH  025%=      5-min Rain = 0
KOD1 112319Z 10006KT 37/14 A2993 RMK A01 T03680135  RH  025%=      5-min Rain = 0
KOD1 112320Z 11004KT 37/14 A2993 RMK A01 T03680135  RH  025%=      5-min Rain = 0
KOD1 112321Z 09005KT 37/14 A2993 RMK A01 T03680138  RH  025%=      5-min Rain = 0
KOD1 112322Z 11007KT 37/14 A2993 RMK A01 T03680139  RH  026%=      5-min Rain = 0
KOD1 112323Z 14006KT 37/14 A2993 RMK A01 T03690142  RH  026%=      5-min Rain = 0
KOD1 112324Z 15006KT 37/14 A2993 RMK A01 T03710144  RH  026%=      5-min Rain = 0
KOD1 112325Z 14008KT 37/14 A2993 RMK A01 T03720142  RH  025%=      5-min Rain = 0
KOD1 112326Z 14007KT 37/14 A2993 RMK A01 T03720140  RH  025%=      5-min Rain = 0
KOD1 112327Z 13007KT 37/14 A2993 RMK A01 T03720138  RH  025%=      5-min Rain = 0
KOD1 112328Z 12006KT 37/14 A2993 RMK A01 T03720138  RH  025%=      5-min Rain = 0
KOD1 112329Z 13007KT 37/14 A2993 RMK A01 T03720136  RH  025%=      5-min Rain = 0
KOD1 112330Z 15008KT 37/14 A2993 RMK A01 T03710138  RH  025%=      5-min Rain = 0
KOD1 112331Z 15010KT 37/14 A2993 RMK A01 T03710142  RH  026%=      5-min Rain = 0
KOD1 112332Z 15007KT 37/14 A2993 RMK A01 T03700139  RH  025%=      5-min Rain = 0
KOD1 112333Z 15005KT 37/14 A2993 RMK A01 T03700141  RH  026%=      5-min Rain = 0
KOD1 112334Z 16006KT 37/14 A2993 RMK A01 T03700140  RH  026%=      5-min Rain = 0
KOD1 112335Z 16005KT 37/14 A2993 RMK A01 T03700143  RH  026%=      5-min Rain = 0
KOD1 112336Z 15008KT 37/14 A2993 RMK A01 T03700142  RH  026%=      5-min Rain = 0
KOD1 112337Z 13008KT 37/14 A2993 RMK A01 T03700137  RH  025%=      5-min Rain = 0
KOD1 112338Z 14008KT 37/14 A2993 RMK A01 T03700138  RH  025%=      5-min Rain = 0
KOD1 112339Z 13009KT 37/14 A2993 RMK A01 T03700137  RH  025%=      5-min Rain = 0
KOD1 112340Z 14008KT 37/14 A2993 RMK A01 T03710139  RH  025%=      5-min Rain = 0
KOD1 112341Z 14008KT 37/14 A2993 RMK A01 T03710138  RH  025%=      5-min Rain = 0
KOD1 112342Z 16007KT 37/14 A2993 RMK A01 T03710142  RH  026%=      5-min Rain = 0
KOD1 112343Z 18008KT 37/14 A2993 RMK A01 T03700140  RH  025%=      5-min Rain = 0
KOD1 112344Z 18008KT 37/14 A2993 RMK A01 T03690141  RH  026%=      5-min Rain = 0
KOD1 112345Z 19006KT 37/14 A2993 RMK A01 T03680143  RH  026%=      5-min Rain = 0
KOD1 112346Z 19006KT 37/14 A2993 RMK A01 T03680142  RH  026%=      5-min Rain = 0
KOD1 112347Z 18005KT 37/14 A2993 RMK A01 T03680143  RH  026%=      5-min Rain = 0
KOD1 112348Z 17005KT 37/15 A2993 RMK A01 T03680149  RH  027%=      5-min Rain = 0
KOD1 112349Z 16005KT 37/15 A2993 RMK A01 T03680147  RH  027%=      5-min Rain = 0
KOD1 112350Z 14006KT 37/15 A2993 RMK A01 T03690146  RH  027%=      5-min Rain = 0
KOD1 112351Z 14007KT 37/14 A2993 RMK A01 T03690138  RH  025%=      5-min Rain = 0
KOD1 112352Z 16007KT 37/14 A2993 RMK A01 T03690140  RH  026%=      5-min Rain = 0
KOD1 112353Z 15007KT 37/14 A2993 RMK A01 T03690138  RH  025%=      5-min Rain = 0
KOD1 112354Z 14007KT 37/14 A2993 RMK A01 T03690142  RH  026%=      5-min Rain = 0
KOD1 112355Z 14006KT 37/14 A2993 RMK A01 T03690138  RH  025%=      5-min Rain = 0
KOD1 112356Z 14007KT 37/14 A2993 RMK A01 T03690136  RH  025%=      5-min Rain = 0
KOD1 112357Z 15006KT 37/14 A2993 RMK A01 T03690139  RH  025%=      5-min Rain = 0
KOD1 112358Z 14009KT 37/14 A2993 RMK A01 T03690139  RH  025%=      5-min Rain = 0
KOD1 112359Z 15008KT 37/14 A2993 RMK A01 T03690138  RH  025%=      5-min Rain = 0
KOD1 120000Z 18007KT 37/14 A2993 RMK A01 T03690142  RH  026%=      5-min Rain = 0
KOD1 120001Z 20008KT 37/14 A2993 RMK A01 T03680141  RH  026%=      5-min Rain = 0
KOD1 120002Z 20008KT 37/14 A2993 RMK A01 T03670141  RH  026%=      5-min Rain = 0
KOD1 120003Z 20007KT 37/14 A2993 RMK A01 T03670135  RH  025%=      5-min Rain = 0
KOD1 120004Z 18006KT 37/14 A2993 RMK A01 T03660139  RH  026%=      5-min Rain = 0
KOD1 120005Z 19006KT 37/14 A2993 RMK A01 T03650138  RH  026%=      5-min Rain = 0
KOD1 120006Z 18005KT 37/14 A2993 RMK A01 T03650141  RH  026%=      5-min Rain = 0
KOD1 120007Z 18007KT 37/14 A2993 RMK A01 T03650138  RH  026%=      5-min Rain = 0
KOD1 120008Z 18005KT 37/14 A2993 RMK A01 T03650138  RH  026%=      5-min Rain = 0
KOD1 120009Z 17005KT 37/14 A2993 RMK A01 T03650142  RH  027%=      5-min Rain = 0
KOD1 120010Z 17005KT 37/15 A2993 RMK A01 T03650147  RH  027%=      5-min Rain = 0
KOD1 120011Z 18005KT 37/15 A2993 RMK A01 T03650148  RH  028%=      5-min Rain = 0
KOD1 120012Z 18005KT 37/14 A2993 RMK A01 T03650141  RH  026%=      5-min Rain = 0
KOD1 120013Z 18006KT 37/14 A2993 RMK A01 T03650141  RH  026%=      5-min Rain = 0
KOD1 120014Z 17007KT 36/14 A2993 RMK A01 T03640142  RH  027%=      5-min Rain = 0
KOD1 120015Z 18006KT 36/14 A2993 RMK A01 T03640143  RH  027%=      5-min Rain = 0
KOD1 120016Z 16006KT 36/14 A2994 RMK A01 T03640142  RH  027%=      5-min Rain = 0
KOD1 120017Z 16007KT 36/14 A2994 RMK A01 T03640143  RH  027%=      5-min Rain = 0
KOD1 120018Z 15008KT 37/14 A2994 RMK A01 T03650142  RH  026%=      5-min Rain = 0
KOD1 120019Z 15009KT 37/14 A2994 RMK A01 T03660138  RH  026%=      5-min Rain = 0
KOD1 120020Z 14009KT 37/14 A2994 RMK A01 T03660136  RH  025%=      5-min Rain = 0
KOD1 120021Z 14008KT 37/14 A2994 RMK A01 T03660136  RH  025%=      5-min Rain = 0
KOD1 120022Z 13008KT 37/13 A2994 RMK A01 T03660134  RH  025%=      5-min Rain = 0
KOD1 120023Z 14008KT 37/13 A2994 RMK A01 T03670131  RH  024%=      5-min Rain = 0
KOD1 120024Z 14009KT 37/13 A2994 RMK A01 T03670132  RH  025%=      5-min Rain = 0
KOD1 120025Z 14009KT 37/13 A2994 RMK A01 T03660130  RH  024%=      5-min Rain = 0
KOD1 120026Z 15008KT 37/13 A2994 RMK A01 T03660133  RH  025%=      5-min Rain = 0
KOD1 120027Z 15006KT 37/13 A2994 RMK A01 T03660131  RH  025%=      5-min Rain = 0
KOD1 120028Z 13006KT 37/13 A2994 RMK A01 T03660132  RH  025%=      5-min Rain = 0
KOD1 120029Z 12007KT 37/13 A2994 RMK A01 T03660130  RH  024%=      5-min Rain = 0
KOD1 120030Z 13005KT 37/13 A2994 RMK A01 T03650131  RH  025%=      5-min Rain = 0
KOD1 120031Z 13003KT 37/14 A2994 RMK A01 T03650136  RH  025%=      5-min Rain = 0
KOD1 120032Z 13004KT 37/14 A2994 RMK A01 T03660138  RH  026%=      5-min Rain = 0
KOD1 120033Z 12005KT 37/13 A2994 RMK A01 T03660131  RH  025%=      5-min Rain = 0
KOD1 120034Z 11006KT 37/13 A2994 RMK A01 T03660132  RH  025%=      5-min Rain = 0
KOD1 120035Z 12006KT 37/13 A2994 RMK A01 T03660133  RH  025%=      5-min Rain = 0
KOD1 120036Z 11007KT 37/14 A2994 RMK A01 T03650136  RH  025%=      5-min Rain = 0
KOD1 120037Z 10007KT 36/14 A2994 RMK A01 T03640141  RH  026%=      5-min Rain = 0
KOD1 120038Z 10007KT 36/14 A2994 RMK A01 T03640141  RH  026%=      5-min Rain = 0
KOD1 120039Z 12008KT 36/14 A2994 RMK A01 T03630141  RH  026%=      5-min Rain = 0
KOD1 120040Z 12007KT 36/14 A2994 RMK A01 T03630142  RH  027%=      5-min Rain = 0
KOD1 120041Z 11007KT 36/14 A2994 RMK A01 T03620143  RH  027%=      5-min Rain = 0
KOD1 120042Z 12008KT 36/14 A2994 RMK A01 T03610144  RH  027%=      5-min Rain = 0
KOD1 120043Z 12007KT 36/14 A2994 RMK A01 T03610143  RH  027%=      5-min Rain = 0
KOD1 120044Z 12007KT 36/14 A2994 RMK A01 T03610144  RH  027%=      5-min Rain = 0
KOD1 120045Z 13009KT 36/15 A2994 RMK A01 T03600145  RH  028%=      5-min Rain = 0
KOD1 120046Z 13008KT 36/14 A2994 RMK A01 T03600142  RH  027%=      5-min Rain = 0
KOD1 120047Z 12007KT 36/14 A2994 RMK A01 T03600144  RH  028%=      5-min Rain = 0
KOD1 120048Z 12008KT 36/14 A2994 RMK A01 T03600142  RH  027%=      5-min Rain = 0
KOD1 120049Z 11007KT 36/14 A2994 RMK A01 T03590143  RH  028%=      5-min Rain = 0
KOD1 120050Z 12007KT 36/14 A2994 RMK A01 T03590144  RH  028%=      5-min Rain = 0
KOD1 120051Z 12008KT 36/14 A2994 RMK A01 T03590143  RH  028%=      5-min Rain = 0
KOD1 120052Z 12009KT 36/14 A2994 RMK A01 T03580141  RH  027%=      5-min Rain = 0
KOD1 120053Z 11007KT 36/14 A2994 RMK A01 T03580142  RH  028%=      5-min Rain = 0
KOD1 120054Z 11008KT 36/14 A2994 RMK A01 T03570144  RH  028%=      5-min Rain = 0
KOD1 120055Z 12008KT 36/15 A2994 RMK A01 T03560145  RH  028%=      5-min Rain = 0
KOD1 120056Z 11007KT 36/15 A2994 RMK A01 T03560146  RH  029%=      5-min Rain = 0
KOD1 120057Z 11008KT 36/15 A2994 RMK A01 T03550146  RH  029%=      5-min Rain = 0
KOD1 120058Z 11007KT 35/15 A2994 RMK A01 T03540146  RH  029%=      5-min Rain = 0
KOD1 120059Z 11007KT 35/15 A2994 RMK A01 T03530146  RH  029%=      5-min Rain = 0
KOD1 120100Z 11007KT 35/15 A2994 RMK A01 T03530146  RH  029%=      5-min Rain = 0
KOD1 120101Z 11007KT 35/15 A2994 RMK A01 T03520146  RH  029%=      5-min Rain = 0
KOD1 120102Z 11007KT 35/15 A2994 RMK A01 T03510146  RH  029%=      5-min Rain = 0
KOD1 120103Z 10010KT 35/15 A2994 RMK A01 T03510145  RH  029%=      5-min Rain = 0
KOD1 120104Z 11014KT 35/15 A2995 RMK A01 T03500150  RH  030%=      5-min Rain = 0
KOD1 120105Z 11012KT 35/15 A2995 RMK A01 T03480154  RH  031%=      5-min Rain = 0
KOD1 120106Z 11012KT 35/16 A2995 RMK A01 T03460156  RH  032%=      5-min Rain = 0
KOD1 120107Z 10013KT 35/16 A2995 RMK A01 T03450158  RH  033%=      5-min Rain = 0
KOD1 120108Z 10011KT 34/16 A2995 RMK A01 T03430159  RH  033%=      5-min Rain = 0
KOD1 120109Z 11012KT 34/16 A2995 RMK A01 T03420159  RH  034%=      5-min Rain = 0
KOD1 120110Z 10013KT 34/16 A2995 RMK A01 T03410159  RH  034%=      5-min Rain = 0
KOD1 120111Z 10012KT 34/16 A2995 RMK A01 T03400160  RH  034%=      5-min Rain = 0
KOD1 120112Z 10012KT 34/16 A2995 RMK A01 T03390160  RH  034%=      5-min Rain = 0
KOD1 120113Z 11011KT 34/16 A2995 RMK A01 T03390161  RH  035%=      5-min Rain = 0
KOD1 120114Z 11010KT 34/16 A2995 RMK A01 T03380162  RH  035%=      5-min Rain = 0
KOD1 120115Z 11009KT 34/16 A2995 RMK A01 T03380162  RH  035%=      5-min Rain = 0
KOD1 120116Z 11011KT 34/16 A2995 RMK A01 T03370163  RH  035%=      5-min Rain = 0
KOD1 120117Z 11011KT 34/16 A2995 RMK A01 T03370163  RH  036%=      5-min Rain = 0
KOD1 120118Z 11011KT 34/16 A2995 RMK A01 T03360164  RH  036%=      5-min Rain = 0
KOD1 120119Z 11011KT 34/16 A2995 RMK A01 T03360164  RH  036%=      5-min Rain = 0
KOD1 120120Z 11011KT 34/16 A2995 RMK A01 T03350164  RH  036%=      5-min Rain = 0
KOD1 120121Z 11011KT 34/16 A2995 RMK A01 T03350164  RH  036%=      5-min Rain = 0
KOD1 120122Z 11010KT 33/17 A2995 RMK A01 T03340165  RH  036%=      5-min Rain = 0
KOD1 120123Z 11010KT 33/17 A2995 RMK A01 T03340165  RH  037%=      5-min Rain = 0
KOD1 120124Z 11009KT 33/17 A2995 RMK A01 T03330165  RH  037%=      5-min Rain = 0
KOD1 120125Z 11009KT 33/17 A2995 RMK A01 T03330166  RH  037%=      5-min Rain = 0
KOD1 120126Z 11010KT 33/17 A2995 RMK A01 T03320166  RH  037%=      5-min Rain = 0
KOD1 120127Z 11009KT 33/17 A2995 RMK A01 T03320166  RH  037%=      5-min Rain = 0
KOD1 120128Z 11009KT 33/17 A2995 RMK A01 T03320166  RH  037%=      5-min Rain = 0
KOD1 120129Z 11009KT 33/17 A2995 RMK A01 T03310167  RH  037%=      5-min Rain = 0
KOD1 120130Z 11008KT 33/17 A2995 RMK A01 T03310167  RH  037%=      5-min Rain = 0
KOD1 120131Z 11009KT 33/17 A2995 RMK A01 T03310167  RH  038%=      5-min Rain = 0
KOD1 120132Z 12008KT 33/17 A2995 RMK A01 T03300166  RH  037%=      5-min Rain = 0
KOD1 120133Z 11008KT 33/17 A2995 RMK A01 T03300167  RH  038%=      5-min Rain = 0
KOD1 120134Z 11008KT 33/17 A2995 RMK A01 T03290168  RH  038%=      5-min Rain = 0
KOD1 120135Z 11009KT 33/17 A2995 RMK A01 T03290167  RH  038%=      5-min Rain = 0
KOD1 120136Z 12010KT 33/17 A2995 RMK A01 T03290166  RH  038%=      5-min Rain = 0
KOD1 120137Z 11008KT 33/17 A2995 RMK A01 T03290166  RH  038%=      5-min Rain = 0
KOD1 120138Z 11008KT 33/17 A2995 RMK A01 T03290166  RH  038%=      5-min Rain = 0
KOD1 120139Z 11007KT 33/17 A2995 RMK A01 T03290166  RH  038%=      5-min Rain = 0
KOD1 120140Z 11006KT 33/17 A2995 RMK A01 T03290167  RH  038%=      5-min Rain = 0
KOD1 120141Z 11008KT 33/17 A2996 RMK A01 T03280167  RH  038%=      5-min Rain = 0
KOD1 120142Z 11008KT 33/17 A2996 RMK A01 T03280167  RH  038%=      5-min Rain = 0
KOD1 120143Z 11008KT 33/17 A2996 RMK A01 T03270167  RH  038%=      5-min Rain = 0
KOD1 120144Z 12008KT 33/17 A2996 RMK A01 T03270167  RH  039%=      5-min Rain = 0
KOD1 120145Z 11008KT 33/17 A2996 RMK A01 T03260168  RH  039%=      5-min Rain = 0
KOD1 120146Z 11010KT 33/17 A2996 RMK A01 T03260167  RH  038%=      5-min Rain = 0
KOD1 120147Z 11008KT 33/17 A2996 RMK A01 T03260167  RH  038%=      5-min Rain = 0
KOD1 120148Z 11009KT 33/17 A2996 RMK A01 T03260167  RH  039%=      5-min Rain = 0
KOD1 120149Z 11009KT 33/17 A2996 RMK A01 T03260167  RH  039%=      5-min Rain = 0
KOD1 120150Z 11009KT 33/17 A2996 RMK A01 T03260166  RH  038%=      5-min Rain = 0
KOD1 120151Z 11008KT 33/17 A2996 RMK A01 T03260167  RH  039%=      5-min Rain = 0
KOD1 120152Z 11008KT 33/17 A2996 RMK A01 T03250167  RH  039%=      5-min Rain = 0
KOD1 120153Z 11008KT 33/17 A2996 RMK A01 T03250167  RH  039%=      5-min Rain = 0
KOD1 120154Z 11009KT 33/17 A2996 RMK A01 T03250167  RH  039%=      5-min Rain = 0
KOD1 120155Z 11008KT 32/17 A2996 RMK A01 T03240167  RH  039%=      5-min Rain = 0
KOD1 120156Z 11009KT 32/17 A2996 RMK A01 T03240166  RH  039%=      5-min Rain = 0
KOD1 120157Z 11009KT 32/17 A2996 RMK A01 T03240166  RH  039%=      5-min Rain = 0
KOD1 120158Z 11010KT 32/17 A2996 RMK A01 T03240166  RH  039%=      5-min Rain = 0
KOD1 120159Z 11010KT 32/17 A2996 RMK A01 T03240166  RH  039%=      5-min Rain = 0
KOD1 120200Z 11008KT 32/17 A2996 RMK A01 T03240166  RH  039%=      5-min Rain = 0
KOD1 120201Z 11008KT 32/17 A2996 RMK A01 T03230167  RH  039%=      5-min Rain = 0
KOD1 120202Z 11009KT 32/17 A2996 RMK A01 T03230166  RH  039%=      5-min Rain = 0
KOD1 120203Z 11009KT 32/17 A2996 RMK A01 T03230167  RH  039%=      5-min Rain = 0
KOD1 120204Z 11010KT 32/17 A2996 RMK A01 T03230167  RH  039%=      5-min Rain = 0
KOD1 120205Z 11008KT 32/17 A2997 RMK A01 T03220167  RH  039%=      5-min Rain = 0
KOD1 120206Z 11008KT 32/17 A2997 RMK A01 T03220167  RH  040%=      5-min Rain = 0
KOD1 120207Z 11009KT 32/17 A2997 RMK A01 T03220167  RH  040%=      5-min Rain = 0
KOD1 120208Z 11008KT 32/17 A2997 RMK A01 T03210168  RH  040%=      5-min Rain = 0
KOD1 120209Z 11008KT 32/17 A2997 RMK A01 T03210168  RH  040%=      5-min Rain = 0
KOD1 120210Z 11008KT 32/17 A2997 RMK A01 T03200168  RH  040%=      5-min Rain = 0
KOD1 120211Z 11008KT 32/17 A2997 RMK A01 T03200168  RH  040%=      5-min Rain = 0
KOD1 120212Z 11007KT 32/17 A2997 RMK A01 T03200168  RH  040%=      5-min Rain = 0
KOD1 120213Z 11007KT 32/17 A2997 RMK A01 T03190168  RH  040%=      5-min Rain = 0
KOD1 120214Z 11008KT 32/17 A2997 RMK A01 T03190169  RH  041%=      5-min Rain = 0
KOD1 120215Z 11008KT 32/17 A2997 RMK A01 T03190169  RH  041%=      5-min Rain = 0
KOD1 120216Z 11007KT 32/17 A2997 RMK A01 T03180169  RH  041%=      5-min Rain = 0
KOD1 120217Z 11008KT 32/17 A2997 RMK A01 T03180169  RH  041%=      5-min Rain = 0
KOD1 120218Z 11008KT 32/17 A2997 RMK A01 T03180169  RH  041%=      5-min Rain = 0
KOD1 120219Z 11008KT 32/17 A2997 RMK A01 T03180170  RH  041%=      5-min Rain = 0
KOD1 120220Z 11007KT 32/17 A2997 RMK A01 T03180170  RH  041%=      5-min Rain = 0
KOD1 120221Z 11009KT 32/17 A2997 RMK A01 T03170170  RH  041%=      5-min Rain = 0
KOD1 120222Z 11009KT 32/17 A2997 RMK A01 T03180170  RH  041%=      5-min Rain = 0
KOD1 120223Z 11008KT 32/17 A2997 RMK A01 T03180170  RH  041%=      5-min Rain = 0
KOD1 120224Z 11008KT 32/17 A2997 RMK A01 T03180171  RH  041%=      5-min Rain = 0
KOD1 120225Z 11007KT 32/17 A2997 RMK A01 T03170171  RH  042%=      5-min Rain = 0
KOD1 120226Z 11009KT 32/17 A2997 RMK A01 T03170171  RH  042%=      5-min Rain = 0
KOD1 120227Z 11009KT 32/17 A2997 RMK A01 T03170171  RH  042%=      5-min Rain = 0
KOD1 120228Z 11010KT 32/17 A2997 RMK A01 T03170171  RH  042%=      5-min Rain = 0
KOD1 120229Z 11009KT 32/17 A2997 RMK A01 T03170172  RH  042%=      5-min Rain = 0
KOD1 120230Z 11009KT 32/17 A2997 RMK A01 T03170172  RH  042%=      5-min Rain = 0
KOD1 120231Z 11008KT 32/17 A2997 RMK A01 T03170172  RH  042%=      5-min Rain = 0
KOD1 120232Z 11009KT 32/17 A2997 RMK A01 T03160172  RH  042%=      5-min Rain = 0
KOD1 120233Z 11007KT 32/17 A2997 RMK A01 T03160172  RH  042%=      5-min Rain = 0
KOD1 120234Z 11008KT 32/17 A2997 RMK A01 T03160173  RH  042%=      5-min Rain = 0
KOD1 120235Z 11009KT 32/17 A2997 RMK A01 T03160172  RH  042%=      5-min Rain = 0
KOD1 120236Z 11007KT 32/17 A2997 RMK A01 T03160173  RH  042%=      5-min Rain = 0
KOD1 120237Z 11008KT 32/17 A2997 RMK A01 T03150173  RH  043%=      5-min Rain = 0
KOD1 120238Z 11008KT 32/17 A2997 RMK A01 T03150173  RH  043%=      5-min Rain = 0
KOD1 120239Z 12007KT 32/17 A2998 RMK A01 T03150173  RH  043%=      5-min Rain = 0
KOD1 120240Z 12008KT 31/17 A2998 RMK A01 T03140174  RH  043%=      5-min Rain = 0
KOD1 120241Z 12008KT 31/17 A2998 RMK A01 T03140174  RH  043%=      5-min Rain = 0
KOD1 120242Z 12008KT 31/17 A2998 RMK A01 T03140174  RH  043%=      5-min Rain = 0
KOD1 120243Z 12008KT 31/17 A2998 RMK A01 T03140174  RH  043%=      5-min Rain = 0
KOD1 120244Z 11007KT 31/17 A2998 RMK A01 T03140174  RH  043%=      5-min Rain = 0
KOD1 120245Z 12008KT 31/18 A2998 RMK A01 T03130175  RH  044%=      5-min Rain = 0
KOD1 120246Z 11009KT 31/18 A2998 RMK A01 T03130175  RH  044%=      5-min Rain = 0
KOD1 120247Z 11008KT 31/18 A2998 RMK A01 T03130175  RH  044%=      5-min Rain = 0
KOD1 120248Z 11008KT 31/18 A2998 RMK A01 T03130175  RH  044%=      5-min Rain = 0
KOD1 120249Z 12008KT 31/18 A2998 RMK A01 T03120176  RH  044%=      5-min Rain = 0
KOD1 120250Z 12008KT 31/18 A2999 RMK A01 T03120176  RH  044%=      5-min Rain = 0
KOD1 120251Z 11008KT 31/18 A2999 RMK A01 T03120176  RH  044%=      5-min Rain = 0
KOD1 120252Z 12008KT 31/18 A2999 RMK A01 T03120176  RH  044%=      5-min Rain = 0
KOD1 120253Z 12009KT 31/18 A2999 RMK A01 T03120176  RH  044%=      5-min Rain = 0
KOD1 120254Z 12010KT 31/18 A2999 RMK A01 T03120177  RH  044%=      5-min Rain = 0
KOD1 120255Z 12010KT 31/18 A2999 RMK A01 T03120176  RH  044%=      5-min Rain = 0
KOD1 120256Z 12010KT 31/18 A2999 RMK A01 T03120176  RH  044%=      5-min Rain = 0
KOD1 120257Z 12009KT 31/18 A2999 RMK A01 T03120177  RH  044%=      5-min Rain = 0
KOD1 120258Z 12011KT 31/18 A2999 RMK A01 T03120177  RH  044%=      5-min Rain = 0
KOD1 120259Z 12010KT 31/18 A2999 RMK A01 T03120177  RH  045%=      5-min Rain = 0
KOD1 120300Z 12010KT 31/18 A2999 RMK A01 T03110177  RH  045%=      5-min Rain = 0
KOD1 120301Z 12010KT 31/18 A2999 RMK A01 T03110177  RH  045%=      5-min Rain = 0
KOD1 120302Z 12010KT 31/18 A2999 RMK A01 T03110177  RH  045%=      5-min Rain = 0
KOD1 120303Z 12010KT 31/18 A2999 RMK A01 T03110177  RH  045%=      5-min Rain = 0
KOD1 120304Z 12009KT 31/18 A2999 RMK A01 T03110177  RH  045%=      5-min Rain = 0
KOD1 120305Z 12010KT 31/18 A2999 RMK A01 T03110177  RH  045%=      5-min Rain = 0
KOD1 120306Z 12010KT 31/18 A2999 RMK A01 T03110176  RH  045%=      5-min Rain = 0
KOD1 120307Z 11009KT 31/18 A2999 RMK A01 T03110177  RH  045%=      5-min Rain = 0
KOD1 120308Z 12010KT 31/18 A2999 RMK A01 T03100177  RH  045%=      5-min Rain = 0
KOD1 120309Z 11009KT 31/18 A2999 RMK A01 T03100177  RH  045%=      5-min Rain = 0
KOD1 120310Z 12009KT 31/18 A2999 RMK A01 T03100177  RH  045%=      5-min Rain = 0
KOD1 120311Z 12009KT 31/18 A2999 RMK A01 T03100177  RH  045%=      5-min Rain = 0
KOD1 120312Z 12010KT 31/18 A2999 RMK A01 T03100177  RH  045%=      5-min Rain = 0
KOD1 120313Z 12009KT 31/18 A30 RMK A01 T03100177  RH  045%=      5-min Rain = 0
KOD1 120314Z 12009KT 31/18 A30 RMK A01 T03100177  RH  045%=      5-min Rain = 0
KOD1 120315Z 11009KT 31/18 A30 RMK A01 T03100177  RH  045%=      5-min Rain = 0
KOD1 120316Z 12010KT 31/18 A30 RMK A01 T03100176  RH  045%=      5-min Rain = 0
KOD1 120317Z 12009KT 31/18 A30 RMK A01 T03100176  RH  045%=      5-min Rain = 0
KOD1 120318Z 12010KT 31/18 A30 RMK A01 T03100176  RH  045%=      5-min Rain = 0
KOD1 120319Z 12009KT 31/18 A30 RMK A01 T03100176  RH  045%=      5-min Rain = 0
KOD1 120320Z 12009KT 31/18 A30 RMK A01 T03090176  RH  045%=      5-min Rain = 0
KOD1 120321Z 12009KT 31/18 A30 RMK A01 T03090176  RH  045%=      5-min Rain = 0
KOD1 120322Z 12010KT 31/18 A30 RMK A01 T03090176  RH  045%=      5-min Rain = 0
KOD1 120323Z 12008KT 31/18 A30 RMK A01 T03090176  RH  045%=      5-min Rain = 0
KOD1 120324Z 12008KT 31/18 A30 RMK A01 T03090177  RH  045%=      5-min Rain = 0
KOD1 120325Z 12007KT 31/18 A30 RMK A01 T03080177  RH  045%=      5-min Rain = 0
KOD1 120326Z 12009KT 31/18 A3001 RMK A01 T03080176  RH  045%=      5-min Rain = 0
KOD1 120327Z 12008KT 31/18 A3001 RMK A01 T03080176  RH  045%=      5-min Rain = 0
KOD1 120328Z 12009KT 31/18 A3001 RMK A01 T03080176  RH  045%=      5-min Rain = 0
KOD1 120329Z 12009KT 31/18 A3001 RMK A01 T03080175  RH  045%=      5-min Rain = 0
KOD1 120330Z 12007KT 31/18 A3001 RMK A01 T03080176  RH  045%=      5-min Rain = 0
KOD1 120331Z 12009KT 31/18 A3001 RMK A01 T03080176  RH  045%=      5-min Rain = 0
KOD1 120332Z 12008KT 31/18 A3001 RMK A01 T03080175  RH  045%=      5-min Rain = 0
KOD1 120333Z 13008KT 31/18 A3001 RMK A01 T03080175  RH  045%=      5-min Rain = 0
KOD1 120334Z 13008KT 31/18 A3001 RMK A01 T03080175  RH  045%=      5-min Rain = 0
KOD1 120335Z 13007KT 31/18 A3001 RMK A01 T03080175  RH  045%=      5-min Rain = 0
KOD1 120336Z 13007KT 31/18 A3001 RMK A01 T03080175  RH  045%=      5-min Rain = 0
KOD1 120337Z 13007KT 31/18 A3001 RMK A01 T03070175  RH  045%=      5-min Rain = 0
KOD1 120338Z 13007KT 31/18 A3001 RMK A01 T03070176  RH  045%=      5-min Rain = 0
KOD1 120339Z 13008KT 31/18 A3001 RMK A01 T03060175  RH  046%=      5-min Rain = 0
KOD1 120340Z 13007KT 31/18 A3001 RMK A01 T03060176  RH  046%=      5-min Rain = 0
KOD1 120341Z 13007KT 31/18 A3001 RMK A01 T03060175  RH  046%=      5-min Rain = 0
KOD1 120342Z 13007KT 31/18 A3001 RMK A01 T03050176  RH  046%=      5-min Rain = 0
KOD1 120343Z 13009KT 31/18 A3001 RMK A01 T03060175  RH  046%=      5-min Rain = 0
KOD1 120344Z 13007KT 31/18 A3001 RMK A01 T03060175  RH  046%=      5-min Rain = 0
KOD1 120345Z 12007KT 31/18 A3001 RMK A01 T03060175  RH  046%=      5-min Rain = 0
KOD1 120346Z 12007KT 31/18 A3001 RMK A01 T03050176  RH  046%=      5-min Rain = 0
KOD1 120347Z 13007KT 31/18 A3001 RMK A01 T03050175  RH  046%=      5-min Rain = 0
KOD1 120348Z 13007KT 30/18 A3001 RMK A01 T03040176  RH  046%=      5-min Rain = 0
KOD1 120349Z 13008KT 30/18 A3001 RMK A01 T03040175  RH  046%=      5-min Rain = 0
KOD1 120350Z 13007KT 30/18 A3001 RMK A01 T03040175  RH  046%=      5-min Rain = 0
KOD1 120351Z 13008KT 30/18 A3001 RMK A01 T03040175  RH  046%=      5-min Rain = 0
KOD1 120352Z 13008KT 30/18 A3001 RMK A01 T03040175  RH  046%=      5-min Rain = 0
KOD1 120353Z 13007KT 30/18 A3001 RMK A01 T03040175  RH  046%=      5-min Rain = 0
KOD1 120354Z 13008KT 30/18 A3001 RMK A01 T03040175  RH  046%=      5-min Rain = 0
KOD1 120355Z 13008KT 31/17 A3001 RMK A01 T03050174  RH  046%=      5-min Rain = 0
KOD1 120356Z 13009KT 31/17 A3001 RMK A01 T03050174  RH  045%=      5-min Rain = 0
KOD1 120357Z 13009KT 31/17 A3001 RMK A01 T03060174  RH  045%=      5-min Rain = 0
KOD1 120358Z 13010KT 31/17 A3001 RMK A01 T03060174  RH  045%=      5-min Rain = 0
KOD1 120359Z 14009KT 31/17 A3001 RMK A01 T03060174  RH  045%=      5-min Rain = 0
KOD1 120400Z 14009KT 31/17 A3001 RMK A01 T03060174  RH  045%=      5-min Rain = 0
KOD1 120401Z 13010KT 31/17 A3001 RMK A01 T03060174  RH  045%=      5-min Rain = 0
KOD1 120402Z 14009KT 31/17 A3001 RMK A01 T03060174  RH  045%=      5-min Rain = 0
KOD1 120403Z 14009KT 31/17 A3002 RMK A01 T03060174  RH  045%=      5-min Rain = 0
KOD1 120404Z 14011KT 31/17 A3001 RMK A01 T03060173  RH  045%=      5-min Rain = 0
KOD1 120405Z 13010KT 31/17 A3001 RMK A01 T03060173  RH  045%=      5-min Rain = 0
KOD1 120406Z 14008KT 31/17 A3001 RMK A01 T03070173  RH  045%=      5-min Rain = 0
KOD1 120407Z 13009KT 31/17 A3001 RMK A01 T03060173  RH  045%=      5-min Rain = 0
KOD1 120408Z 13010KT 31/17 A3001 RMK A01 T03060173  RH  045%=      5-min Rain = 0
KOD1 120409Z 14010KT 31/17 A3001 RMK A01 T03070172  RH  045%=      5-min Rain = 0
KOD1 120410Z 13009KT 31/17 A3001 RMK A01 T03070173  RH  045%=      5-min Rain = 0
KOD1 120411Z 14009KT 31/17 A3001 RMK A01 T03060173  RH  045%=      5-min Rain = 0
KOD1 120412Z 14009KT 31/17 A3001 RMK A01 T03060173  RH  045%=      5-min Rain = 0
KOD1 120413Z 14010KT 31/17 A3001 RMK A01 T03060173  RH  045%=      5-min Rain = 0
KOD1 120414Z 14009KT 31/17 A3001 RMK A01 T03060173  RH  045%=      5-min Rain = 0
KOD1 120415Z 14009KT 31/17 A3001 RMK A01 T03060172  RH  045%=      5-min Rain = 0
KOD1 120416Z 14010KT 31/17 A3001 RMK A01 T03060172  RH  045%=      5-min Rain = 0
KOD1 120417Z 14009KT 31/17 A3001 RMK A01 T03060172  RH  045%=      5-min Rain = 0
KOD1 120418Z 14009KT 31/17 A3001 RMK A01 T03060171  RH  045%=      5-min Rain = 0
KOD1 120419Z 14009KT 31/17 A3001 RMK A01 T03060171  RH  044%=      5-min Rain = 0
KOD1 120420Z 14009KT 31/17 A3002 RMK A01 T03060171  RH  044%=      5-min Rain = 0
KOD1 120421Z 14009KT 31/17 A3002 RMK A01 T03070171  RH  044%=      5-min Rain = 0
KOD1 120422Z 14009KT 31/17 A3002 RMK A01 T03070171  RH  044%=      5-min Rain = 0
KOD1 120423Z 14010KT 31/17 A3002 RMK A01 T03080170  RH  044%=      5-min Rain = 0
KOD1 120424Z 15011KT 31/17 A3002 RMK A01 T03080170  RH  044%=      5-min Rain = 0
KOD1 120425Z 15011KT 31/17 A3002 RMK A01 T03090170  RH  043%=      5-min Rain = 0
KOD1 120426Z 15012KT 31/17 A3002 RMK A01 T03090170  RH  043%=      5-min Rain = 0
KOD1 120427Z 15010KT 31/17 A3001 RMK A01 T03090170  RH  043%=      5-min Rain = 0
KOD1 120428Z 15010KT 31/17 A3001 RMK A01 T03090171  RH  043%=      5-min Rain = 0
KOD1 120429Z 15011KT 31/17 A3002 RMK A01 T03090171  RH  043%=      5-min Rain = 0
KOD1 120430Z 15010KT 31/17 A3002 RMK A01 T03090171  RH  043%=      5-min Rain = 0
KOD1 120431Z 15011KT 31/17 A3002 RMK A01 T03090172  RH  044%=      5-min Rain = 0
KOD1 120432Z 15010KT 31/17 A3002 RMK A01 T03080172  RH  044%=      5-min Rain = 0
KOD1 120433Z 15010KT 31/17 A3002 RMK A01 T03080172  RH  044%=      5-min Rain = 0
KOD1 120434Z 15011KT 31/17 A3002 RMK A01 T03070172  RH  044%=      5-min Rain = 0
KOD1 120435Z 15011KT 31/17 A3002 RMK A01 T03070172  RH  044%=      5-min Rain = 0
KOD1 120436Z 15010KT 31/17 A3002 RMK A01 T03080172  RH  044%=      5-min Rain = 0
KOD1 120437Z 14010KT 31/17 A3002 RMK A01 T03080172  RH  044%=      5-min Rain = 0
KOD1 120438Z 15010KT 31/17 A3002 RMK A01 T03080172  RH  044%=      5-min Rain = 0
KOD1 120439Z 15010KT 31/17 A3002 RMK A01 T03070173  RH  045%=      5-min Rain = 0
KOD1 120440Z 15011KT 31/17 A3002 RMK A01 T03070173  RH  045%=      5-min Rain = 0
KOD1 120441Z 15011KT 31/17 A3002 RMK A01 T03070173  RH  045%=      5-min Rain = 0
KOD1 120442Z 16010KT 31/17 A3002 RMK A01 T03070173  RH  045%=      5-min Rain = 0
KOD1 120443Z 15009KT 31/17 A3002 RMK A01 T03060174  RH  045%=      5-min Rain = 0
KOD1 120444Z 15009KT 31/17 A3002 RMK A01 T03050174  RH  046%=      5-min Rain = 0
KOD1 120445Z 15010KT 30/17 A3002 RMK A01 T03040174  RH  046%=      5-min Rain = 0
KOD1 120446Z 15009KT 30/18 A3002 RMK A01 T03040175  RH  046%=      5-min Rain = 0
KOD1 120447Z 15010KT 30/17 A3002 RMK A01 T03040174  RH  046%=      5-min Rain = 0
KOD1 120448Z 15009KT 30/18 A3002 RMK A01 T03040175  RH  046%=      5-min Rain = 0
KOD1 120449Z 15009KT 30/18 A3002 RMK A01 T03040175  RH  046%=      5-min Rain = 0
KOD1 120450Z 15008KT 30/18 A3002 RMK A01 T03030175  RH  046%=      5-min Rain = 0
KOD1 120451Z 15010KT 30/18 A3002 RMK A01 T03030175  RH  046%=      5-min Rain = 0
KOD1 120452Z 15011KT 30/18 A3002 RMK A01 T03030175  RH  046%=      5-min Rain = 0
KOD1 120453Z 15009KT 30/18 A3002 RMK A01 T03030175  RH  046%=      5-min Rain = 0
KOD1 120454Z 15010KT 30/18 A3002 RMK A01 T03040175  RH  046%=      5-min Rain = 0
KOD1 120455Z 15010KT 30/18 A3002 RMK A01 T03040175  RH  046%=      5-min Rain = 0
KOD1 120456Z 15009KT 30/18 A3002 RMK A01 T03040175  RH  046%=      5-min Rain = 0
KOD1 120457Z 15009KT 30/18 A3002 RMK A01 T03040175  RH  046%=      5-min Rain = 0
KOD1 120458Z 15010KT 30/18 A3002 RMK A01 T03030175  RH  046%=      5-min Rain = 0
KOD1 120459Z 15009KT 30/18 A3002 RMK A01 T03030175  RH  046%=      5-min Rain = 0
KOD1 120500Z 15009KT 30/18 A3002 RMK A01 T03030176  RH  047%=      5-min Rain = 0

Page generated in 0.0345 seconds.